﻿<?xml version="1.0" encoding="utf-8"?><gpx creator="Garmin Desktop App" version="1.1" xsi:schemaLocation="http://www.topografix.com/GPX/1/1 http://www.topografix.com/GPX/1/1/gpx.xsd http://www.garmin.com/xmlschemas/WaypointExtension/v1 http://www8.garmin.com/xmlschemas/WaypointExtensionv1.xsd http://www.garmin.com/xmlschemas/TrackPointExtension/v1 http://www.garmin.com/xmlschemas/TrackPointExtensionv1.xsd http://www.garmin.com/xmlschemas/GpxExtensions/v3 http://www8.garmin.com/xmlschemas/GpxExtensionsv3.xsd http://www.garmin.com/xmlschemas/ActivityExtension/v1 http://www8.garmin.com/xmlschemas/ActivityExtensionv1.xsd http://www.garmin.com/xmlschemas/AdventuresExtensions/v1 http://www8.garmin.com/xmlschemas/AdventuresExtensionv1.xsd http://www.garmin.com/xmlschemas/PressureExtension/v1 http://www.garmin.com/xmlschemas/PressureExtensionv1.xsd http://www.garmin.com/xmlschemas/TripExtensions/v1 http://www.garmin.com/xmlschemas/TripExtensionsv1.xsd http://www.garmin.com/xmlschemas/TripMetaDataExtensions/v1 http://www.garmin.com/xmlschemas/TripMetaDataExtensionsv1.xsd http://www.garmin.com/xmlschemas/ViaPointTransportationModeExtensions/v1 http://www.garmin.com/xmlschemas/ViaPointTransportationModeExtensionsv1.xsd http://www.garmin.com/xmlschemas/CreationTimeExtension/v1 http://www.garmin.com/xmlschemas/CreationTimeExtensionsv1.xsd http://www.garmin.com/xmlschemas/AccelerationExtension/v1 http://www.garmin.com/xmlschemas/AccelerationExtensionv1.xsd http://www.garmin.com/xmlschemas/PowerExtension/v1 http://www.garmin.com/xmlschemas/PowerExtensionv1.xsd http://www.garmin.com/xmlschemas/VideoExtension/v1 http://www.garmin.com/xmlschemas/VideoExtensionv1.xsd" xmlns="http://www.topografix.com/GPX/1/1" xmlns:xsi="http://www.w3.org/2001/XMLSchema-instance" xmlns:wptx1="http://www.garmin.com/xmlschemas/WaypointExtension/v1" xmlns:gpxtrx="http://www.garmin.com/xmlschemas/GpxExtensions/v3" xmlns:gpxtpx="http://www.garmin.com/xmlschemas/TrackPointExtension/v1" xmlns:gpxx="http://www.garmin.com/xmlschemas/GpxExtensions/v3" xmlns:trp="http://www.garmin.com/xmlschemas/TripExtensions/v1" xmlns:adv="http://www.garmin.com/xmlschemas/AdventuresExtensions/v1" xmlns:prs="http://www.garmin.com/xmlschemas/PressureExtension/v1" xmlns:tmd="http://www.garmin.com/xmlschemas/TripMetaDataExtensions/v1" xmlns:vptm="http://www.garmin.com/xmlschemas/ViaPointTransportationModeExtensions/v1" xmlns:ctx="http://www.garmin.com/xmlschemas/CreationTimeExtension/v1" xmlns:gpxacc="http://www.garmin.com/xmlschemas/AccelerationExtension/v1" xmlns:gpxpx="http://www.garmin.com/xmlschemas/PowerExtension/v1" xmlns:vidx1="http://www.garmin.com/xmlschemas/VideoExtension/v1">

  <metadata>
    <link href="http://www.garmin.com">
      <text>Garmin International</text>
    </link>
    <time>2022-08-28T19:52:26Z</time>
    <bounds maxlat="51.055557327345014" maxlon="5.055856704711914" minlat="51.034149695187807" minlon="5.007555317133665" />
  </metadata>

  <trk>
    <name>gerhage rally 17 km</name>
    <extensions>
      <gpxx:TrackExtension>
        <gpxx:DisplayColor>Red</gpxx:DisplayColor>
      </gpxx:TrackExtension>
    </extensions>
    <trkseg>
      <trkpt lat="51.051917988806963" lon="5.055524362251163">
        <ele>-15.01</ele>
        <time>2022-08-28T10:12:43Z</time>
      </trkpt>
      <trkpt lat="51.051986804232001" lon="5.055856704711914">
        <ele>22.219999999999999</ele>
        <time>2022-08-28T11:15:09Z</time>
      </trkpt>
      <trkpt lat="51.051933662965894" lon="5.055751679465175">
        <ele>22.219999999999999</ele>
        <time>2022-08-28T11:15:53Z</time>
      </trkpt>
      <trkpt lat="51.051914216950536" lon="5.055682696402073">
        <ele>22.329999999999998</ele>
        <time>2022-08-28T11:16:47Z</time>
      </trkpt>
      <trkpt lat="51.051906757056713" lon="5.055647827684879">
        <ele>22.32</ele>
        <time>2022-08-28T11:16:54Z</time>
      </trkpt>
      <trkpt lat="51.051847329363227" lon="5.055119851604104">
        <ele>22.48</ele>
        <time>2022-08-28T11:17:28Z</time>
      </trkpt>
      <trkpt lat="51.051843054592609" lon="5.055037206038833">
        <ele>22.469999999999999</ele>
        <time>2022-08-28T11:17:33Z</time>
      </trkpt>
      <trkpt lat="51.051954282447696" lon="5.054739816114306">
        <ele>22.52</ele>
        <time>2022-08-28T11:17:52Z</time>
      </trkpt>
      <trkpt lat="51.052002562209964" lon="5.054432870820165">
        <ele>22.579999999999998</ele>
        <time>2022-08-28T11:18:10Z</time>
      </trkpt>
      <trkpt lat="51.05200775898993" lon="5.054265400394797">
        <ele>22.649999999999999</ele>
        <time>2022-08-28T11:18:28Z</time>
      </trkpt>
      <trkpt lat="51.05203659273684" lon="5.054258024320006">
        <ele>22.68</ele>
        <time>2022-08-28T11:18:43Z</time>
      </trkpt>
      <trkpt lat="51.052043884992599" lon="5.054268166422844">
        <ele>22.699999999999999</ele>
        <time>2022-08-28T11:18:47Z</time>
      </trkpt>
      <trkpt lat="51.05215678922832" lon="5.054208068177104">
        <ele>22.75</ele>
        <time>2022-08-28T11:19:02Z</time>
      </trkpt>
      <trkpt lat="51.052271788939834" lon="5.054193567484617">
        <ele>22.75</ele>
        <time>2022-08-28T11:19:17Z</time>
      </trkpt>
      <trkpt lat="51.052283691242337" lon="5.054203541949391">
        <ele>22.75</ele>
        <time>2022-08-28T11:19:19Z</time>
      </trkpt>
      <trkpt lat="51.052300538867712" lon="5.054104048758745">
        <ele>22.690000000000001</ele>
        <time>2022-08-28T11:19:30Z</time>
      </trkpt>
      <trkpt lat="51.052139522507787" lon="5.054019978269935">
        <ele>22.640000000000001</ele>
        <time>2022-08-28T11:19:38Z</time>
      </trkpt>
      <trkpt lat="51.051960987970233" lon="5.053955102339387">
        <ele>22.539999999999999</ele>
        <time>2022-08-28T11:19:53Z</time>
      </trkpt>
      <trkpt lat="51.051887897774577" lon="5.053924089297652">
        <ele>20.149999999999999</ele>
        <time>2022-08-28T11:19:58Z</time>
      </trkpt>
      <trkpt lat="51.051654880866408" lon="5.053827865049243">
        <ele>19.190000000000001</ele>
        <time>2022-08-28T11:20:13Z</time>
      </trkpt>
      <trkpt lat="51.051401663571596" lon="5.053735077381134">
        <ele>18.27</ele>
        <time>2022-08-28T11:20:31Z</time>
      </trkpt>
      <trkpt lat="51.050847116857767" lon="5.05357556976378">
        <ele>17</ele>
        <time>2022-08-28T11:21:15Z</time>
      </trkpt>
      <trkpt lat="51.050398936495185" lon="5.053432658314705">
        <ele>16.620000000000001</ele>
        <time>2022-08-28T11:21:49Z</time>
      </trkpt>
      <trkpt lat="51.05034202337265" lon="5.053437100723386">
        <ele>16.579999999999998</ele>
        <time>2022-08-28T11:21:53Z</time>
      </trkpt>
      <trkpt lat="51.050170361995697" lon="5.053394436836243">
        <ele>16.329999999999998</ele>
        <time>2022-08-28T11:22:09Z</time>
      </trkpt>
      <trkpt lat="51.049954611808062" lon="5.053321849554777">
        <ele>16.16</ele>
        <time>2022-08-28T11:22:23Z</time>
      </trkpt>
      <trkpt lat="51.049770461395383" lon="5.053227804601193">
        <ele>16</ele>
        <time>2022-08-28T11:22:37Z</time>
      </trkpt>
      <trkpt lat="51.049570553004742" lon="5.053178267553449">
        <ele>14.94</ele>
        <time>2022-08-28T11:22:52Z</time>
      </trkpt>
      <trkpt lat="51.04938137345016" lon="5.053095957264304">
        <ele>14.77</ele>
        <time>2022-08-28T11:23:06Z</time>
      </trkpt>
      <trkpt lat="51.048661787062883" lon="5.052841985598207">
        <ele>14.32</ele>
        <time>2022-08-28T11:24:03Z</time>
      </trkpt>
      <trkpt lat="51.048463471233845" lon="5.052776439115405">
        <ele>14.220000000000001</ele>
        <time>2022-08-28T11:24:21Z</time>
      </trkpt>
      <trkpt lat="51.048302287235856" lon="5.0527248904109">
        <ele>14.17</ele>
        <time>2022-08-28T11:24:35Z</time>
      </trkpt>
      <trkpt lat="51.048073377460241" lon="5.052708210423589">
        <ele>14.07</ele>
        <time>2022-08-28T11:24:53Z</time>
      </trkpt>
      <trkpt lat="51.047852011397481" lon="5.052634365856648">
        <ele>13.949999999999999</ele>
        <time>2022-08-28T11:25:11Z</time>
      </trkpt>
      <trkpt lat="51.047175927087665" lon="5.05272245965898">
        <ele>17</ele>
        <time>2022-08-28T11:26:03Z</time>
      </trkpt>
      <trkpt lat="51.046927152201533" lon="5.052737044170499">
        <ele>16.960000000000001</ele>
        <time>2022-08-28T11:26:22Z</time>
      </trkpt>
      <trkpt lat="51.046574609354138" lon="5.052771829068661">
        <ele>18.460000000000001</ele>
        <time>2022-08-28T11:26:48Z</time>
      </trkpt>
      <trkpt lat="51.04645692743361" lon="5.052793119102716">
        <ele>19.43</ele>
        <time>2022-08-28T11:26:58Z</time>
      </trkpt>
      <trkpt lat="51.046286523342133" lon="5.052808206528425">
        <ele>20.149999999999999</ele>
        <time>2022-08-28T11:27:13Z</time>
      </trkpt>
      <trkpt lat="51.046109413728118" lon="5.052801249548793">
        <ele>20.859999999999999</ele>
        <time>2022-08-28T11:27:25Z</time>
      </trkpt>
      <trkpt lat="51.046048309653997" lon="5.052810469642282">
        <ele>20.829999999999998</ele>
        <time>2022-08-28T11:27:29Z</time>
      </trkpt>
      <trkpt lat="51.045918976888061" lon="5.05281918682158">
        <ele>21.609999999999999</ele>
        <time>2022-08-28T11:27:38Z</time>
      </trkpt>
      <trkpt lat="51.045807749032974" lon="5.052845925092697">
        <ele>22.329999999999998</ele>
        <time>2022-08-28T11:27:47Z</time>
      </trkpt>
      <trkpt lat="51.045616390183568" lon="5.052887834608555">
        <ele>22.149999999999999</ele>
        <time>2022-08-28T11:28:01Z</time>
      </trkpt>
      <trkpt lat="51.045564003288746" lon="5.05289688706398">
        <ele>22.960000000000001</ele>
        <time>2022-08-28T11:28:05Z</time>
      </trkpt>
      <trkpt lat="51.045373482629657" lon="5.052936282008886">
        <ele>23.59</ele>
        <time>2022-08-28T11:28:19Z</time>
      </trkpt>
      <trkpt lat="51.045308858156204" lon="5.052932845428586">
        <ele>24.289999999999999</ele>
        <time>2022-08-28T11:28:24Z</time>
      </trkpt>
      <trkpt lat="51.045106016099453" lon="5.052972240373492">
        <ele>24.969999999999999</ele>
        <time>2022-08-28T11:28:39Z</time>
      </trkpt>
      <trkpt lat="51.044964110478759" lon="5.052952123805881">
        <ele>25.579999999999998</ele>
        <time>2022-08-28T11:28:51Z</time>
      </trkpt>
      <trkpt lat="51.044739810749888" lon="5.052993362769485">
        <ele>25.300000000000001</ele>
        <time>2022-08-28T11:29:07Z</time>
      </trkpt>
      <trkpt lat="51.044512577354908" lon="5.053023956716061">
        <ele>26.859999999999999</ele>
        <time>2022-08-28T11:29:23Z</time>
      </trkpt>
      <trkpt lat="51.044341251254082" lon="5.053077852353454">
        <ele>26.670000000000002</ele>
        <time>2022-08-28T11:29:37Z</time>
      </trkpt>
      <trkpt lat="51.044193226844072" lon="5.053187320008874">
        <ele>27.25</ele>
        <time>2022-08-28T11:29:52Z</time>
      </trkpt>
      <trkpt lat="51.044032210484147" lon="5.053311288356781">
        <ele>27.129999999999999</ele>
        <time>2022-08-28T11:30:05Z</time>
      </trkpt>
      <trkpt lat="51.043975297361612" lon="5.053349761292338">
        <ele>27.100000000000001</ele>
        <time>2022-08-28T11:30:09Z</time>
      </trkpt>
      <trkpt lat="51.043789219111204" lon="5.053496360778809">
        <ele>26.949999999999999</ele>
        <time>2022-08-28T11:30:23Z</time>
      </trkpt>
      <trkpt lat="51.04353491216898" lon="5.053682271391153">
        <ele>28.390000000000001</ele>
        <time>2022-08-28T11:30:46Z</time>
      </trkpt>
      <trkpt lat="51.043395940214396" lon="5.053884191438556">
        <ele>28.219999999999999</ele>
        <time>2022-08-28T11:31:00Z</time>
      </trkpt>
      <trkpt lat="51.043268451467156" lon="5.054156100377441">
        <ele>28.100000000000001</ele>
        <time>2022-08-28T11:31:15Z</time>
      </trkpt>
      <trkpt lat="51.043220171704888" lon="5.054203206673265">
        <ele>28.059999999999999</ele>
        <time>2022-08-28T11:31:20Z</time>
      </trkpt>
      <trkpt lat="51.043088994920254" lon="5.054450137540698">
        <ele>27.98</ele>
        <time>2022-08-28T11:31:35Z</time>
      </trkpt>
      <trkpt lat="51.042731171473861" lon="5.054967049509287">
        <ele>27.760000000000002</ele>
        <time>2022-08-28T11:32:09Z</time>
      </trkpt>
      <trkpt lat="51.042618183419108" lon="5.055090514943004">
        <ele>25.440000000000001</ele>
        <time>2022-08-28T11:32:20Z</time>
      </trkpt>
      <trkpt lat="51.042543919757009" lon="5.055193528532982">
        <ele>25.41</ele>
        <time>2022-08-28T11:32:27Z</time>
      </trkpt>
      <trkpt lat="51.042412323877215" lon="5.055398130789399">
        <ele>25.32</ele>
        <time>2022-08-28T11:32:48Z</time>
      </trkpt>
      <trkpt lat="51.042253822088242" lon="5.055310539901257">
        <ele>25.23</ele>
        <time>2022-08-28T11:33:01Z</time>
      </trkpt>
      <trkpt lat="51.042191963642836" lon="5.055263098329306">
        <ele>25.219999999999999</ele>
        <time>2022-08-28T11:33:06Z</time>
      </trkpt>
      <trkpt lat="51.041851323097944" lon="5.055065788328648">
        <ele>22.449999999999999</ele>
        <time>2022-08-28T11:33:39Z</time>
      </trkpt>
      <trkpt lat="51.041734563186765" lon="5.054964702576399">
        <ele>21.59</ele>
        <time>2022-08-28T11:33:49Z</time>
      </trkpt>
      <trkpt lat="51.041253944858909" lon="5.054791364818811">
        <ele>19.649999999999999</ele>
        <time>2022-08-28T11:34:19Z</time>
      </trkpt>
      <trkpt lat="51.041114721447229" lon="5.05473361350596">
        <ele>18.579999999999998</ele>
        <time>2022-08-28T11:34:33Z</time>
      </trkpt>
      <trkpt lat="51.041015228256583" lon="5.054658595472574">
        <ele>17.440000000000001</ele>
        <time>2022-08-28T11:34:49Z</time>
      </trkpt>
      <trkpt lat="51.040885895490646" lon="5.054515600204468">
        <ele>17.149999999999999</ele>
        <time>2022-08-28T11:35:04Z</time>
      </trkpt>
      <trkpt lat="51.040579285472631" lon="5.054200943559408">
        <ele>15.85</ele>
        <time>2022-08-28T11:35:26Z</time>
      </trkpt>
      <trkpt lat="51.040460681542754" lon="5.054151238873601">
        <ele>14.69</ele>
        <time>2022-08-28T11:35:41Z</time>
      </trkpt>
      <trkpt lat="51.040300922468305" lon="5.054004807025194">
        <ele>14.210000000000001</ele>
        <time>2022-08-28T11:36:00Z</time>
      </trkpt>
      <trkpt lat="51.040015267208219" lon="5.053815208375454">
        <ele>12.84</ele>
        <time>2022-08-28T11:36:21Z</time>
      </trkpt>
      <trkpt lat="51.039999844506383" lon="5.05381160415709">
        <ele>12.77</ele>
        <time>2022-08-28T11:36:24Z</time>
      </trkpt>
      <trkpt lat="51.039807479828596" lon="5.05372024141252">
        <ele>12.289999999999999</ele>
        <time>2022-08-28T11:36:43Z</time>
      </trkpt>
      <trkpt lat="51.039548646658659" lon="5.053716637194157">
        <ele>11.029999999999999</ele>
        <time>2022-08-28T11:37:01Z</time>
      </trkpt>
      <trkpt lat="51.039295010268688" lon="5.053716218098998">
        <ele>10.56</ele>
        <time>2022-08-28T11:37:19Z</time>
      </trkpt>
      <trkpt lat="51.039020083844662" lon="5.053629633039236">
        <ele>10.01</ele>
        <time>2022-08-28T11:37:39Z</time>
      </trkpt>
      <trkpt lat="51.038972223177552" lon="5.053605576977134">
        <ele>9.9</ele>
        <time>2022-08-28T11:37:43Z</time>
      </trkpt>
      <trkpt lat="51.038677599281073" lon="5.053569115698338">
        <ele>9.369999999999999</ele>
        <time>2022-08-28T11:38:03Z</time>
      </trkpt>
      <trkpt lat="51.038582045584917" lon="5.053532402962446">
        <ele>9.279999999999999</ele>
        <time>2022-08-28T11:38:07Z</time>
      </trkpt>
      <trkpt lat="51.038330756127834" lon="5.053351353853941">
        <ele>8.08</ele>
        <time>2022-08-28T11:38:26Z</time>
      </trkpt>
      <trkpt lat="51.038260348141193" lon="5.052872411906719">
        <ele>7.78</ele>
        <time>2022-08-28T11:38:42Z</time>
      </trkpt>
      <trkpt lat="51.038212236016989" lon="5.052717933431268">
        <ele>7.61</ele>
        <time>2022-08-28T11:38:52Z</time>
      </trkpt>
      <trkpt lat="51.038325391709805" lon="5.052623553201556">
        <ele>7.32</ele>
        <time>2022-08-28T11:39:11Z</time>
      </trkpt>
      <trkpt lat="51.038446258753538" lon="5.052513247355819">
        <ele>7.14</ele>
        <time>2022-08-28T11:39:21Z</time>
      </trkpt>
      <trkpt lat="51.038601491600275" lon="5.052416184917092">
        <ele>6.97</ele>
        <time>2022-08-28T11:39:31Z</time>
      </trkpt>
      <trkpt lat="51.038871305063367" lon="5.05226505920291">
        <ele>6.81</ele>
        <time>2022-08-28T11:39:40Z</time>
      </trkpt>
      <trkpt lat="51.039042547345161" lon="5.052160704508424">
        <ele>6.64</ele>
        <time>2022-08-28T11:39:48Z</time>
      </trkpt>
      <trkpt lat="51.039153859019279" lon="5.052060876041651">
        <ele>8.93</ele>
        <time>2022-08-28T11:39:53Z</time>
      </trkpt>
      <trkpt lat="51.039809407666326" lon="5.051498198881745">
        <ele>9.289999999999999</ele>
        <time>2022-08-28T11:40:38Z</time>
      </trkpt>
      <trkpt lat="51.039955001324415" lon="5.051388898864389">
        <ele>9.68</ele>
        <time>2022-08-28T11:40:48Z</time>
      </trkpt>
      <trkpt lat="51.040089698508382" lon="5.051314048469067">
        <ele>10</ele>
        <time>2022-08-28T11:41:00Z</time>
      </trkpt>
      <trkpt lat="51.040670061483979" lon="5.050991848111153">
        <ele>10.380000000000001</ele>
        <time>2022-08-28T11:41:32Z</time>
      </trkpt>
      <trkpt lat="51.04060753248632" lon="5.050658248364925">
        <ele>12.050000000000001</ele>
        <time>2022-08-28T11:41:45Z</time>
      </trkpt>
      <trkpt lat="51.040550619363785" lon="5.050297407433391">
        <ele>13.16</ele>
        <time>2022-08-28T11:42:15Z</time>
      </trkpt>
      <trkpt lat="51.040064888074994" lon="5.048400247469544">
        <ele>22.739999999999998</ele>
        <time>2022-08-28T11:43:46Z</time>
      </trkpt>
      <trkpt lat="51.040003867819905" lon="5.048255492001772">
        <ele>22.690000000000001</ele>
        <time>2022-08-28T11:43:53Z</time>
      </trkpt>
      <trkpt lat="51.040134960785508" lon="5.048203188925982">
        <ele>23.34</ele>
        <time>2022-08-28T11:44:05Z</time>
      </trkpt>
      <trkpt lat="51.040277034044266" lon="5.048064300790429">
        <ele>20.559999999999999</ele>
        <time>2022-08-28T11:44:26Z</time>
      </trkpt>
      <trkpt lat="51.040396057069302" lon="5.047984588891268">
        <ele>21.77</ele>
        <time>2022-08-28T11:46:03Z</time>
      </trkpt>
      <trkpt lat="51.040449617430568" lon="5.047923400998116">
        <ele>19.66</ele>
        <time>2022-08-28T11:46:51Z</time>
      </trkpt>
      <trkpt lat="51.040497478097677" lon="5.047830445691943">
        <ele>18.670000000000002</ele>
        <time>2022-08-28T11:47:01Z</time>
      </trkpt>
      <trkpt lat="51.040565622970462" lon="5.047773448750377">
        <ele>16.739999999999998</ele>
        <time>2022-08-28T11:47:11Z</time>
      </trkpt>
      <trkpt lat="51.040788078680634" lon="5.047606062144041">
        <ele>15.039999999999999</ele>
        <time>2022-08-28T11:47:25Z</time>
      </trkpt>
      <trkpt lat="51.040927469730377" lon="5.047506904229522">
        <ele>13.08</ele>
        <time>2022-08-28T11:47:36Z</time>
      </trkpt>
      <trkpt lat="51.041171718388796" lon="5.047334739938378">
        <ele>10.59</ele>
        <time>2022-08-28T11:47:59Z</time>
      </trkpt>
      <trkpt lat="51.041304739192128" lon="5.047241868451238">
        <ele>10.6</ele>
        <time>2022-08-28T11:48:12Z</time>
      </trkpt>
      <trkpt lat="51.041414877399802" lon="5.047154612839222">
        <ele>10.619999999999999</ele>
        <time>2022-08-28T11:48:34Z</time>
      </trkpt>
      <trkpt lat="51.041299039497972" lon="5.046671312302351">
        <ele>10.619999999999999</ele>
        <time>2022-08-28T11:48:53Z</time>
      </trkpt>
      <trkpt lat="51.041231648996472" lon="5.046239895746112">
        <ele>10.58</ele>
        <time>2022-08-28T11:49:12Z</time>
      </trkpt>
      <trkpt lat="51.041096951812506" lon="5.045691886916757">
        <ele>10.529999999999999</ele>
        <time>2022-08-28T11:49:31Z</time>
      </trkpt>
      <trkpt lat="51.040945993736386" lon="5.044764177873731">
        <ele>10.41</ele>
        <time>2022-08-28T11:50:15Z</time>
      </trkpt>
      <trkpt lat="51.04074927046895" lon="5.042705917730928">
        <ele>11.43</ele>
        <time>2022-08-28T11:51:50Z</time>
      </trkpt>
      <trkpt lat="51.040724376216531" lon="5.042347591370344">
        <ele>11.16</ele>
        <time>2022-08-28T11:52:10Z</time>
      </trkpt>
      <trkpt lat="51.04062270373106" lon="5.041492134332657">
        <ele>10.789999999999999</ele>
        <time>2022-08-28T11:52:45Z</time>
      </trkpt>
      <trkpt lat="51.040589259937406" lon="5.041056023910642">
        <ele>8.08</ele>
        <time>2022-08-28T11:52:57Z</time>
      </trkpt>
      <trkpt lat="51.040582889690995" lon="5.041002547368407">
        <ele>8.07</ele>
        <time>2022-08-28T11:52:58Z</time>
      </trkpt>
      <trkpt lat="51.040576938539743" lon="5.040956363081932">
        <ele>8.060000000000001</ele>
        <time>2022-08-28T11:52:59Z</time>
      </trkpt>
      <trkpt lat="51.040569730103016" lon="5.040902551263571">
        <ele>8.02</ele>
        <time>2022-08-28T11:53:00Z</time>
      </trkpt>
      <trkpt lat="51.040539471432567" lon="5.040781600400806">
        <ele>7.99</ele>
        <time>2022-08-28T11:53:02Z</time>
      </trkpt>
      <trkpt lat="51.040501333773136" lon="5.040471637621522">
        <ele>7.91</ele>
        <time>2022-08-28T11:53:08Z</time>
      </trkpt>
      <trkpt lat="51.040507787838578" lon="5.040427381172776">
        <ele>7.89</ele>
        <time>2022-08-28T11:53:09Z</time>
      </trkpt>
      <trkpt lat="51.040472164750099" lon="5.039777867496014">
        <ele>7.83</ele>
        <time>2022-08-28T11:53:13Z</time>
      </trkpt>
      <trkpt lat="51.040628738701344" lon="5.037220129743218">
        <ele>2.75</ele>
        <time>2022-08-28T11:53:54Z</time>
      </trkpt>
      <trkpt lat="51.040617674589157" lon="5.037031788378954">
        <ele>1.86</ele>
        <time>2022-08-28T11:53:56Z</time>
      </trkpt>
      <trkpt lat="51.040611807256937" lon="5.036939922720194">
        <ele>1.85</ele>
        <time>2022-08-28T11:53:57Z</time>
      </trkpt>
      <trkpt lat="51.040614573284984" lon="5.036865156143904">
        <ele>1.82</ele>
        <time>2022-08-28T11:53:58Z</time>
      </trkpt>
      <trkpt lat="51.040615327656269" lon="5.036798771470785">
        <ele>1.81</ele>
        <time>2022-08-28T11:53:59Z</time>
      </trkpt>
      <trkpt lat="51.04061096906662" lon="5.036736074835062">
        <ele>1.83</ele>
        <time>2022-08-28T11:54:00Z</time>
      </trkpt>
      <trkpt lat="51.040666289627552" lon="5.034980736672878">
        <ele>-0.81</ele>
        <time>2022-08-28T11:54:23Z</time>
      </trkpt>
      <trkpt lat="51.040628990158439" lon="5.034310519695282">
        <ele>-1.1</ele>
        <time>2022-08-28T11:54:42Z</time>
      </trkpt>
      <trkpt lat="51.040613818913698" lon="5.034305993467569">
        <ele>-1.12</ele>
        <time>2022-08-28T11:54:43Z</time>
      </trkpt>
      <trkpt lat="51.040328834205866" lon="5.034333569929004">
        <ele>-1.59</ele>
        <time>2022-08-28T11:55:08Z</time>
      </trkpt>
      <trkpt lat="51.040093218907714" lon="5.034421244636178">
        <ele>-1.81</ele>
        <time>2022-08-28T11:55:20Z</time>
      </trkpt>
      <trkpt lat="51.03996355086565" lon="5.034426441416144">
        <ele>0.35</ele>
        <time>2022-08-28T11:55:37Z</time>
      </trkpt>
      <trkpt lat="51.039225272834301" lon="5.034643616527319">
        <ele>1.61</ele>
        <time>2022-08-28T11:56:13Z</time>
      </trkpt>
      <trkpt lat="51.038896031677723" lon="5.034765489399433">
        <ele>3.03</ele>
        <time>2022-08-28T11:56:25Z</time>
      </trkpt>
      <trkpt lat="51.036443738266826" lon="5.035358006134629">
        <ele>12.449999999999999</ele>
        <time>2022-08-28T11:58:20Z</time>
      </trkpt>
      <trkpt lat="51.03598952293396" lon="5.032313028350473">
        <ele>2.75</ele>
        <time>2022-08-28T12:00:43Z</time>
      </trkpt>
      <trkpt lat="51.035875780507922" lon="5.032266592606902">
        <ele>2.67</ele>
        <time>2022-08-28T12:00:52Z</time>
      </trkpt>
      <trkpt lat="51.035698754712939" lon="5.032203309237957">
        <ele>2.48</ele>
        <time>2022-08-28T12:01:09Z</time>
      </trkpt>
      <trkpt lat="51.035533463582397" lon="5.031924275681377">
        <ele>4.67</ele>
        <time>2022-08-28T12:01:25Z</time>
      </trkpt>
      <trkpt lat="51.03547596372664" lon="5.031849509105086">
        <ele>4.65</ele>
        <time>2022-08-28T12:01:27Z</time>
      </trkpt>
      <trkpt lat="51.035259794443846" lon="5.031739035621285">
        <ele>4.47</ele>
        <time>2022-08-28T12:01:45Z</time>
      </trkpt>
      <trkpt lat="51.035208161920309" lon="5.031737275421619">
        <ele>2.17</ele>
        <time>2022-08-28T12:01:51Z</time>
      </trkpt>
      <trkpt lat="51.035120151937008" lon="5.031740125268698">
        <ele>0.36</ele>
        <time>2022-08-28T12:02:06Z</time>
      </trkpt>
      <trkpt lat="51.03504647500813" lon="5.031676841899753">
        <ele>0.38</ele>
        <time>2022-08-28T12:02:10Z</time>
      </trkpt>
      <trkpt lat="51.034944048151374" lon="5.031501408666372">
        <ele>-0.41</ele>
        <time>2022-08-28T12:02:17Z</time>
      </trkpt>
      <trkpt lat="51.034830641001463" lon="5.031188260763884">
        <ele>-2.1</ele>
        <time>2022-08-28T12:02:35Z</time>
      </trkpt>
      <trkpt lat="51.0347371827811" lon="5.030756760388613">
        <ele>-3.66</ele>
        <time>2022-08-28T12:02:47Z</time>
      </trkpt>
      <trkpt lat="51.034428644925356" lon="5.03055333159864">
        <ele>-4.47</ele>
        <time>2022-08-28T12:03:07Z</time>
      </trkpt>
      <trkpt lat="51.034361338242888" lon="5.029996689409018">
        <ele>-6.11</ele>
        <time>2022-08-28T12:03:27Z</time>
      </trkpt>
      <trkpt lat="51.034192778170109" lon="5.029030423611403">
        <ele>-6.41</ele>
        <time>2022-08-28T12:05:20Z</time>
      </trkpt>
      <trkpt lat="51.034149695187807" lon="5.028909640386701">
        <ele>-6.15</ele>
        <time>2022-08-28T12:05:44Z</time>
      </trkpt>
      <trkpt lat="51.034377850592136" lon="5.028674947097898">
        <ele>-5.9</ele>
        <time>2022-08-28T12:06:04Z</time>
      </trkpt>
      <trkpt lat="51.034483630210161" lon="5.028534801676869">
        <ele>-5.75</ele>
        <time>2022-08-28T12:06:20Z</time>
      </trkpt>
      <trkpt lat="51.034488240256906" lon="5.028534717857838">
        <ele>-5.74</ele>
        <time>2022-08-28T12:06:21Z</time>
      </trkpt>
      <trkpt lat="51.034503411501646" lon="5.028516696766019">
        <ele>-5.7</ele>
        <time>2022-08-28T12:06:24Z</time>
      </trkpt>
      <trkpt lat="51.034541884437203" lon="5.028488114476204">
        <ele>-3.29</ele>
        <time>2022-08-28T12:06:32Z</time>
      </trkpt>
      <trkpt lat="51.034730477258563" lon="5.028223246335983">
        <ele>-3.19</ele>
        <time>2022-08-28T12:06:51Z</time>
      </trkpt>
      <trkpt lat="51.034862576052547" lon="5.028499430045486">
        <ele>-3.01</ele>
        <time>2022-08-28T12:07:10Z</time>
      </trkpt>
      <trkpt lat="51.034995261579752" lon="5.028665224090219">
        <ele>-2.88</ele>
        <time>2022-08-28T12:07:26Z</time>
      </trkpt>
      <trkpt lat="51.035362724214792" lon="5.028741080313921">
        <ele>-2.7</ele>
        <time>2022-08-28T12:07:47Z</time>
      </trkpt>
      <trkpt lat="51.035475879907608" lon="5.028749713674188">
        <ele>-2.64</ele>
        <time>2022-08-28T12:07:56Z</time>
      </trkpt>
      <trkpt lat="51.035912577062845" lon="5.028617111966014">
        <ele>-2.54</ele>
        <time>2022-08-28T12:08:15Z</time>
      </trkpt>
      <trkpt lat="51.035972759127617" lon="5.028605712577701">
        <ele>-2.53</ele>
        <time>2022-08-28T12:08:19Z</time>
      </trkpt>
      <trkpt lat="51.036044340580702" lon="5.028533963486552">
        <ele>-2.52</ele>
        <time>2022-08-28T12:08:22Z</time>
      </trkpt>
      <trkpt lat="51.036279704421759" lon="5.028423070907593">
        <ele>-1.69</ele>
        <time>2022-08-28T12:08:31Z</time>
      </trkpt>
      <trkpt lat="51.036627385765314" lon="5.02804471179843">
        <ele>-0.81</ele>
        <time>2022-08-28T12:08:43Z</time>
      </trkpt>
      <trkpt lat="51.036844728514552" lon="5.027777580544353">
        <ele>-3.26</ele>
        <time>2022-08-28T12:08:56Z</time>
      </trkpt>
      <trkpt lat="51.037126528099179" lon="5.027535175904632">
        <ele>-6.9</ele>
        <time>2022-08-28T12:09:15Z</time>
      </trkpt>
      <trkpt lat="51.037380918860435" lon="5.027424031868577">
        <ele>-7.76</ele>
        <time>2022-08-28T12:09:27Z</time>
      </trkpt>
      <trkpt lat="51.037872936576605" lon="5.027316156774759">
        <ele>-8.609999999999999</ele>
        <time>2022-08-28T12:09:38Z</time>
      </trkpt>
      <trkpt lat="51.038266383111477" lon="5.027374411001802">
        <ele>-8.58</ele>
        <time>2022-08-28T12:09:50Z</time>
      </trkpt>
      <trkpt lat="51.038417257368565" lon="5.027370136231184">
        <ele>-9.369999999999999</ele>
        <time>2022-08-28T12:09:56Z</time>
      </trkpt>
      <trkpt lat="51.039285454899073" lon="5.027391258627176">
        <ele>-10.220000000000001</ele>
        <time>2022-08-28T12:10:07Z</time>
      </trkpt>
      <trkpt lat="51.03942509740591" lon="5.027588149532676">
        <ele>-10.35</ele>
        <time>2022-08-28T12:10:15Z</time>
      </trkpt>
      <trkpt lat="51.039542444050312" lon="5.027648163959384">
        <ele>-10.41</ele>
        <time>2022-08-28T12:10:21Z</time>
      </trkpt>
      <trkpt lat="51.03976808488369" lon="5.027784034609795">
        <ele>-10.619999999999999</ele>
        <time>2022-08-28T12:10:36Z</time>
      </trkpt>
      <trkpt lat="51.040269490331411" lon="5.027764923870564">
        <ele>-10.890000000000001</ele>
        <time>2022-08-28T12:10:57Z</time>
      </trkpt>
      <trkpt lat="51.040641227737069" lon="5.027365777641535">
        <ele>-11.050000000000001</ele>
        <time>2022-08-28T12:11:08Z</time>
      </trkpt>
      <trkpt lat="51.040673581883311" lon="5.027137119323015">
        <ele>-11.32</ele>
        <time>2022-08-28T12:11:30Z</time>
      </trkpt>
      <trkpt lat="51.041584024205804" lon="5.027287658303976">
        <ele>-11.66</ele>
        <time>2022-08-28T12:12:09Z</time>
      </trkpt>
      <trkpt lat="51.042065229266882" lon="5.027336776256561">
        <ele>-11.789999999999999</ele>
        <time>2022-08-28T12:12:35Z</time>
      </trkpt>
      <trkpt lat="51.042188610881567" lon="5.027352869510651">
        <ele>-11.82</ele>
        <time>2022-08-28T12:12:45Z</time>
      </trkpt>
      <trkpt lat="51.04231677018106" lon="5.027395449578762">
        <ele>-11.869999999999999</ele>
        <time>2022-08-28T12:12:55Z</time>
      </trkpt>
      <trkpt lat="51.042396649718285" lon="5.02740022726357">
        <ele>-11.890000000000001</ele>
        <time>2022-08-28T12:12:59Z</time>
      </trkpt>
      <trkpt lat="51.042682137340307" lon="5.027409195899963">
        <ele>-12.07</ele>
        <time>2022-08-28T12:13:20Z</time>
      </trkpt>
      <trkpt lat="51.04282395914197" lon="5.02746719866991">
        <ele>-13</ele>
        <time>2022-08-28T12:13:37Z</time>
      </trkpt>
      <trkpt lat="51.043149260804057" lon="5.027276929467917">
        <ele>-14.029999999999999</ele>
        <time>2022-08-28T12:14:00Z</time>
      </trkpt>
      <trkpt lat="51.043496103957295" lon="5.0269272364676">
        <ele>-14.09</ele>
        <time>2022-08-28T12:14:20Z</time>
      </trkpt>
      <trkpt lat="51.043501133099198" lon="5.026545943692327">
        <ele>-14.119999999999999</ele>
        <time>2022-08-28T12:14:39Z</time>
      </trkpt>
      <trkpt lat="51.043422091752291" lon="5.025842450559139">
        <ele>-14.17</ele>
        <time>2022-08-28T12:15:19Z</time>
      </trkpt>
      <trkpt lat="51.043382612988353" lon="5.025491500273347">
        <ele>-14.17</ele>
        <time>2022-08-28T12:15:34Z</time>
      </trkpt>
      <trkpt lat="51.04336098767817" lon="5.025131916627288">
        <ele>-14.199999999999999</ele>
        <time>2022-08-28T12:15:48Z</time>
      </trkpt>
      <trkpt lat="51.043339446187019" lon="5.02483980730176">
        <ele>-14.25</ele>
        <time>2022-08-28T12:16:04Z</time>
      </trkpt>
      <trkpt lat="51.043046582490206" lon="5.022648191079497">
        <ele>-15.48</ele>
        <time>2022-08-28T12:19:05Z</time>
      </trkpt>
      <trkpt lat="51.042132871225476" lon="5.020863516256213">
        <ele>-15.59</ele>
        <time>2022-08-28T12:20:34Z</time>
      </trkpt>
      <trkpt lat="51.041747638955712" lon="5.020858068019152">
        <ele>-15.619999999999999</ele>
        <time>2022-08-28T12:20:59Z</time>
      </trkpt>
      <trkpt lat="51.041376404464245" lon="5.020772321149707">
        <ele>-15.6</ele>
        <time>2022-08-28T12:21:18Z</time>
      </trkpt>
      <trkpt lat="51.041246987879276" lon="5.020724879577756">
        <ele>-15.59</ele>
        <time>2022-08-28T12:21:29Z</time>
      </trkpt>
      <trkpt lat="51.041168868541718" lon="5.020418521016836">
        <ele>-15.59</ele>
        <time>2022-08-28T12:21:34Z</time>
      </trkpt>
      <trkpt lat="51.041052946820855" lon="5.019918037578464">
        <ele>-15.6</ele>
        <time>2022-08-28T12:21:54Z</time>
      </trkpt>
      <trkpt lat="51.040993686765432" lon="5.019499445334077">
        <ele>-15.609999999999999</ele>
        <time>2022-08-28T12:22:15Z</time>
      </trkpt>
      <trkpt lat="51.040925541892648" lon="5.018997704610229">
        <ele>-15.67</ele>
        <time>2022-08-28T12:22:36Z</time>
      </trkpt>
      <trkpt lat="51.040805010125041" lon="5.018735686317086">
        <ele>-15.710000000000001</ele>
        <time>2022-08-28T12:22:50Z</time>
      </trkpt>
      <trkpt lat="51.040628738701344" lon="5.018269987776876">
        <ele>-15.77</ele>
        <time>2022-08-28T12:23:14Z</time>
      </trkpt>
      <trkpt lat="51.040624128654599" lon="5.018253307789564">
        <ele>-15.77</ele>
        <time>2022-08-28T12:23:15Z</time>
      </trkpt>
      <trkpt lat="51.040392704308033" lon="5.017933119088411">
        <ele>-15.81</ele>
        <time>2022-08-28T12:23:29Z</time>
      </trkpt>
      <trkpt lat="51.040452048182487" lon="5.017881318926811">
        <ele>-15.82</ele>
        <time>2022-08-28T12:23:31Z</time>
      </trkpt>
      <trkpt lat="51.040544165298343" lon="5.01775810495019">
        <ele>-15.85</ele>
        <time>2022-08-28T12:23:49Z</time>
      </trkpt>
      <trkpt lat="51.040662182494998" lon="5.017764810472727">
        <ele>-15.84</ele>
        <time>2022-08-28T12:24:09Z</time>
      </trkpt>
      <trkpt lat="51.04077810421586" lon="5.017812335863709">
        <ele>-15.83</ele>
        <time>2022-08-28T12:24:21Z</time>
      </trkpt>
      <trkpt lat="51.040891259908676" lon="5.017894310876727">
        <ele>-15.869999999999999</ele>
        <time>2022-08-28T12:24:34Z</time>
      </trkpt>
      <trkpt lat="51.041233576834202" lon="5.018101427704096">
        <ele>-15.949999999999999</ele>
        <time>2022-08-28T12:25:06Z</time>
      </trkpt>
      <trkpt lat="51.041365759447217" lon="5.018169572576881">
        <ele>-15.99</ele>
        <time>2022-08-28T12:25:14Z</time>
      </trkpt>
      <trkpt lat="51.042741816490889" lon="5.019053863361478">
        <ele>-16.329999999999998</ele>
        <time>2022-08-28T12:26:06Z</time>
      </trkpt>
      <trkpt lat="51.042810380458832" lon="5.019067944958806">
        <ele>-16.32</ele>
        <time>2022-08-28T12:26:08Z</time>
      </trkpt>
      <trkpt lat="51.042845165356994" lon="5.019071800634265">
        <ele>-16.359999999999999</ele>
        <time>2022-08-28T12:26:09Z</time>
      </trkpt>
      <trkpt lat="51.042898474261165" lon="5.019097113981843">
        <ele>-16.370000000000001</ele>
        <time>2022-08-28T12:26:11Z</time>
      </trkpt>
      <trkpt lat="51.042928481474519" lon="5.019098119810224">
        <ele>-16.359999999999999</ele>
        <time>2022-08-28T12:26:12Z</time>
      </trkpt>
      <trkpt lat="51.042960248887539" lon="5.019098790362477">
        <ele>-16.43</ele>
        <time>2022-08-28T12:26:13Z</time>
      </trkpt>
      <trkpt lat="51.043688468635082" lon="5.019506150856614">
        <ele>-14.449999999999999</ele>
        <time>2022-08-28T12:26:36Z</time>
      </trkpt>
      <trkpt lat="51.043892484158278" lon="5.019489638507366">
        <ele>-14.77</ele>
        <time>2022-08-28T12:26:55Z</time>
      </trkpt>
      <trkpt lat="51.043902961537242" lon="5.019481675699353">
        <ele>-14.779999999999999</ele>
        <time>2022-08-28T12:26:56Z</time>
      </trkpt>
      <trkpt lat="51.04401377029717" lon="5.019310684874654">
        <ele>-14.630000000000001</ele>
        <time>2022-08-28T12:28:15Z</time>
      </trkpt>
      <trkpt lat="51.04403967037797" lon="5.019195014610887">
        <ele>-14.619999999999999</ele>
        <time>2022-08-28T12:28:30Z</time>
      </trkpt>
      <trkpt lat="51.044041011482477" lon="5.019095940515399">
        <ele>-14.59</ele>
        <time>2022-08-28T12:28:42Z</time>
      </trkpt>
      <trkpt lat="51.043948894366622" lon="5.018719844520092">
        <ele>-14.51</ele>
        <time>2022-08-28T12:29:05Z</time>
      </trkpt>
      <trkpt lat="51.043942188844085" lon="5.018630577251315">
        <ele>-14.5</ele>
        <time>2022-08-28T12:29:08Z</time>
      </trkpt>
      <trkpt lat="51.043894663453102" lon="5.018329750746489">
        <ele>-14.49</ele>
        <time>2022-08-28T12:29:21Z</time>
      </trkpt>
      <trkpt lat="51.043784189969301" lon="5.017937729135156">
        <ele>-14.48</ele>
        <time>2022-08-28T12:29:43Z</time>
      </trkpt>
      <trkpt lat="51.043681763112545" lon="5.017341105267406">
        <ele>-14.52</ele>
        <time>2022-08-28T12:30:12Z</time>
      </trkpt>
      <trkpt lat="51.04353784583509" lon="5.016701817512512">
        <ele>-14.65</ele>
        <time>2022-08-28T12:30:34Z</time>
      </trkpt>
      <trkpt lat="51.04303065687418" lon="5.015509659424424">
        <ele>-13.859999999999999</ele>
        <time>2022-08-28T12:32:55Z</time>
      </trkpt>
      <trkpt lat="51.042967792600393" lon="5.015224758535624">
        <ele>-13.619999999999999</ele>
        <time>2022-08-28T12:33:14Z</time>
      </trkpt>
      <trkpt lat="51.042844830080867" lon="5.014717904850841">
        <ele>-13.42</ele>
        <time>2022-08-28T12:33:37Z</time>
      </trkpt>
      <trkpt lat="51.042793365195394" lon="5.014563091099262">
        <ele>-12.44</ele>
        <time>2022-08-28T12:33:47Z</time>
      </trkpt>
      <trkpt lat="51.04266420006752" lon="5.014180541038513">
        <ele>-12.44</ele>
        <time>2022-08-28T12:34:07Z</time>
      </trkpt>
      <trkpt lat="51.042560935020447" lon="5.013950373977423">
        <ele>-12.390000000000001</ele>
        <time>2022-08-28T12:34:25Z</time>
      </trkpt>
      <trkpt lat="51.042587840929627" lon="5.013820957392454">
        <ele>-12.43</ele>
        <time>2022-08-28T12:34:40Z</time>
      </trkpt>
      <trkpt lat="51.042739301919937" lon="5.013656169176102">
        <ele>-10.970000000000001</ele>
        <time>2022-08-28T12:34:56Z</time>
      </trkpt>
      <trkpt lat="51.042833514511585" lon="5.013558100908995">
        <ele>-11.08</ele>
        <time>2022-08-28T12:35:11Z</time>
      </trkpt>
      <trkpt lat="51.042938539758325" lon="5.013396916911006">
        <ele>-11.24</ele>
        <time>2022-08-28T12:35:32Z</time>
      </trkpt>
      <trkpt lat="51.04308195412159" lon="5.013202456757426">
        <ele>-11.35</ele>
        <time>2022-08-28T12:35:46Z</time>
      </trkpt>
      <trkpt lat="51.042834604158998" lon="5.012518409639597">
        <ele>-11.59</ele>
        <time>2022-08-28T12:36:08Z</time>
      </trkpt>
      <trkpt lat="51.042178552597761" lon="5.011296160519123">
        <ele>-12.1</ele>
        <time>2022-08-28T12:36:43Z</time>
      </trkpt>
      <trkpt lat="51.04188971221447" lon="5.010583614930511">
        <ele>-14.720000000000001</ele>
        <time>2022-08-28T12:37:01Z</time>
      </trkpt>
      <trkpt lat="51.04173582047224" lon="5.010241800919175">
        <ele>-14.880000000000001</ele>
        <time>2022-08-28T12:37:13Z</time>
      </trkpt>
      <trkpt lat="51.041693910956383" lon="5.010195281356573">
        <ele>-14.9</ele>
        <time>2022-08-28T12:37:17Z</time>
      </trkpt>
      <trkpt lat="51.041685277596116" lon="5.010173488408327">
        <ele>-14.91</ele>
        <time>2022-08-28T12:37:18Z</time>
      </trkpt>
      <trkpt lat="51.041678320616484" lon="5.010153036564589">
        <ele>-14.92</ele>
        <time>2022-08-28T12:37:19Z</time>
      </trkpt>
      <trkpt lat="51.041665328666568" lon="5.010139960795641">
        <ele>-14.93</ele>
        <time>2022-08-28T12:37:20Z</time>
      </trkpt>
      <trkpt lat="51.041654599830508" lon="5.010128477588296">
        <ele>-14.94</ele>
        <time>2022-08-28T12:37:21Z</time>
      </trkpt>
      <trkpt lat="51.04161168448627" lon="5.010039461776614">
        <ele>-14.98</ele>
        <time>2022-08-28T12:37:25Z</time>
      </trkpt>
      <trkpt lat="51.041473802179098" lon="5.009753806516528">
        <ele>-15.16</ele>
        <time>2022-08-28T12:37:39Z</time>
      </trkpt>
      <trkpt lat="51.041362658143044" lon="5.009407214820385">
        <ele>-15.369999999999999</ele>
        <time>2022-08-28T12:37:56Z</time>
      </trkpt>
      <trkpt lat="51.041231648996472" lon="5.00923739746213">
        <ele>-15.6</ele>
        <time>2022-08-28T12:38:13Z</time>
      </trkpt>
      <trkpt lat="51.04252103716135" lon="5.008791144937277">
        <ele>-16.309999999999999</ele>
        <time>2022-08-28T12:40:23Z</time>
      </trkpt>
      <trkpt lat="51.042755981907248" lon="5.008637839928269">
        <ele>-16.260000000000002</ele>
        <time>2022-08-28T12:40:44Z</time>
      </trkpt>
      <trkpt lat="51.043034428730607" lon="5.008547734469175">
        <ele>-16.16</ele>
        <time>2022-08-28T12:40:58Z</time>
      </trkpt>
      <trkpt lat="51.043067704886198" lon="5.008539352566004">
        <ele>-16.149999999999999</ele>
        <time>2022-08-28T12:41:03Z</time>
      </trkpt>
      <trkpt lat="51.043946631252766" lon="5.008211368694902">
        <ele>-16.829999999999998</ele>
        <time>2022-08-28T12:41:41Z</time>
      </trkpt>
      <trkpt lat="51.044032126665115" lon="5.008147917687893">
        <ele>-16.789999999999999</ele>
        <time>2022-08-28T12:41:55Z</time>
      </trkpt>
      <trkpt lat="51.044047800824046" lon="5.008117072284222">
        <ele>-16.789999999999999</ele>
        <time>2022-08-28T12:42:00Z</time>
      </trkpt>
      <trkpt lat="51.044366313144565" lon="5.007989415898919">
        <ele>-16.039999999999999</ele>
        <time>2022-08-28T12:43:11Z</time>
      </trkpt>
      <trkpt lat="51.044459016993642" lon="5.007988242432475">
        <ele>-15.92</ele>
        <time>2022-08-28T12:43:20Z</time>
      </trkpt>
      <trkpt lat="51.044709635898471" lon="5.007941722869873">
        <ele>-15.68</ele>
        <time>2022-08-28T12:43:40Z</time>
      </trkpt>
      <trkpt lat="51.045080199837685" lon="5.007943650707603">
        <ele>-15.35</ele>
        <time>2022-08-28T12:44:10Z</time>
      </trkpt>
      <trkpt lat="51.045111296698451" lon="5.007933508604765">
        <ele>-15.31</ele>
        <time>2022-08-28T12:44:13Z</time>
      </trkpt>
      <trkpt lat="51.045207269489765" lon="5.007964689284563">
        <ele>-15.19</ele>
        <time>2022-08-28T12:44:31Z</time>
      </trkpt>
      <trkpt lat="51.045894753187895" lon="5.007608374580741">
        <ele>-14.91</ele>
        <time>2022-08-28T12:44:58Z</time>
      </trkpt>
      <trkpt lat="51.045923503115773" lon="5.007608206942678">
        <ele>-14.9</ele>
        <time>2022-08-28T12:44:59Z</time>
      </trkpt>
      <trkpt lat="51.045944541692734" lon="5.007610218599439">
        <ele>-14.890000000000001</ele>
        <time>2022-08-28T12:45:00Z</time>
      </trkpt>
      <trkpt lat="51.045958288013935" lon="5.007612146437168">
        <ele>-14.890000000000001</ele>
        <time>2022-08-28T12:45:01Z</time>
      </trkpt>
      <trkpt lat="51.045974548906088" lon="5.007622875273228">
        <ele>-14.880000000000001</ele>
        <time>2022-08-28T12:45:02Z</time>
      </trkpt>
      <trkpt lat="51.045991564169526" lon="5.007621701806784">
        <ele>-14.869999999999999</ele>
        <time>2022-08-28T12:45:03Z</time>
      </trkpt>
      <trkpt lat="51.046129027381539" lon="5.007555317133665">
        <ele>-14.869999999999999</ele>
        <time>2022-08-28T12:45:06Z</time>
      </trkpt>
      <trkpt lat="51.046179905533791" lon="5.007572751492262">
        <ele>-14.869999999999999</ele>
        <time>2022-08-28T12:45:08Z</time>
      </trkpt>
      <trkpt lat="51.046195160597563" lon="5.007590772584081">
        <ele>-14.869999999999999</ele>
        <time>2022-08-28T12:45:09Z</time>
      </trkpt>
      <trkpt lat="51.046219803392887" lon="5.007607955485582">
        <ele>-14.869999999999999</ele>
        <time>2022-08-28T12:45:10Z</time>
      </trkpt>
      <trkpt lat="51.046248888596892" lon="5.007624216377735">
        <ele>-14.880000000000001</ele>
        <time>2022-08-28T12:45:11Z</time>
      </trkpt>
      <trkpt lat="51.046270178630948" lon="5.0076415669173">
        <ele>-14.869999999999999</ele>
        <time>2022-08-28T12:45:12Z</time>
      </trkpt>
      <trkpt lat="51.046294821426272" lon="5.00764642842114">
        <ele>-14.880000000000001</ele>
        <time>2022-08-28T12:45:13Z</time>
      </trkpt>
      <trkpt lat="51.046594390645623" lon="5.008550668135285">
        <ele>-12.789999999999999</ele>
        <time>2022-08-28T12:45:54Z</time>
      </trkpt>
      <trkpt lat="51.046675276011229" lon="5.008910251781344">
        <ele>-12.880000000000001</ele>
        <time>2022-08-28T12:45:59Z</time>
      </trkpt>
      <trkpt lat="51.04686101898551" lon="5.008732471615076">
        <ele>-12.890000000000001</ele>
        <time>2022-08-28T12:46:01Z</time>
      </trkpt>
      <trkpt lat="51.047184057533741" lon="5.008923411369324">
        <ele>-13.140000000000001</ele>
        <time>2022-08-28T12:46:12Z</time>
      </trkpt>
      <trkpt lat="51.04720258153975" lon="5.008949730545282">
        <ele>-13.17</ele>
        <time>2022-08-28T12:46:13Z</time>
      </trkpt>
      <trkpt lat="51.047236192971468" lon="5.008962554857135">
        <ele>-13.19</ele>
        <time>2022-08-28T12:46:14Z</time>
      </trkpt>
      <trkpt lat="51.047708345577121" lon="5.009766044095159">
        <ele>-13.74</ele>
        <time>2022-08-28T12:46:34Z</time>
      </trkpt>
      <trkpt lat="51.048148479312658" lon="5.010398961603642">
        <ele>-14.130000000000001</ele>
        <time>2022-08-28T12:46:46Z</time>
      </trkpt>
      <trkpt lat="51.048613004386425" lon="5.010750414803624">
        <ele>-14.52</ele>
        <time>2022-08-28T12:46:57Z</time>
      </trkpt>
      <trkpt lat="51.04903151281178" lon="5.01139079220593">
        <ele>-15.09</ele>
        <time>2022-08-28T12:47:10Z</time>
      </trkpt>
      <trkpt lat="51.049207448959351" lon="5.011765295639634">
        <ele>-15.369999999999999</ele>
        <time>2022-08-28T12:47:16Z</time>
      </trkpt>
      <trkpt lat="51.049770880490541" lon="5.012894086539745">
        <ele>-17.289999999999999</ele>
        <time>2022-08-28T12:47:55Z</time>
      </trkpt>
      <trkpt lat="51.049745818600059" lon="5.013125510886312">
        <ele>-17.719999999999999</ele>
        <time>2022-08-28T12:48:05Z</time>
      </trkpt>
      <trkpt lat="51.049980679526925" lon="5.013662371784449">
        <ele>-18.75</ele>
        <time>2022-08-28T12:51:17Z</time>
      </trkpt>
      <trkpt lat="51.050013788044453" lon="5.013713669031858">
        <ele>-18.640000000000001</ele>
        <time>2022-08-28T12:51:26Z</time>
      </trkpt>
      <trkpt lat="51.050183521583676" lon="5.013769995421171">
        <ele>-18.469999999999999</ele>
        <time>2022-08-28T12:51:42Z</time>
      </trkpt>
      <trkpt lat="51.050225514918566" lon="5.013880049809814">
        <ele>-18.379999999999999</ele>
        <time>2022-08-28T12:51:51Z</time>
      </trkpt>
      <trkpt lat="51.050288965925574" lon="5.013988260179758">
        <ele>-18.280000000000001</ele>
        <time>2022-08-28T12:52:02Z</time>
      </trkpt>
      <trkpt lat="51.050318134948611" lon="5.014074090868235">
        <ele>-18.23</ele>
        <time>2022-08-28T12:52:08Z</time>
      </trkpt>
      <trkpt lat="51.050382843241096" lon="5.014129243791103">
        <ele>-18.18</ele>
        <time>2022-08-28T12:52:15Z</time>
      </trkpt>
      <trkpt lat="51.050412431359291" lon="5.014228150248528">
        <ele>-18.149999999999999</ele>
        <time>2022-08-28T12:52:19Z</time>
      </trkpt>
      <trkpt lat="51.05042508803308" lon="5.014251200482249">
        <ele>-18.140000000000001</ele>
        <time>2022-08-28T12:52:21Z</time>
      </trkpt>
      <trkpt lat="51.05045098811388" lon="5.014285482466221">
        <ele>-18.120000000000001</ele>
        <time>2022-08-28T12:52:23Z</time>
      </trkpt>
      <trkpt lat="51.050476636737585" lon="5.014363937079907">
        <ele>-18.09</ele>
        <time>2022-08-28T12:52:27Z</time>
      </trkpt>
      <trkpt lat="51.050572022795677" lon="5.014621093869209">
        <ele>-17.960000000000001</ele>
        <time>2022-08-28T12:52:47Z</time>
      </trkpt>
      <trkpt lat="51.05114433914423" lon="5.016521355137229">
        <ele>-16.379999999999999</ele>
        <time>2022-08-28T12:55:52Z</time>
      </trkpt>
      <trkpt lat="51.051172753795981" lon="5.016550188884139">
        <ele>-16.329999999999998</ele>
        <time>2022-08-28T12:55:56Z</time>
      </trkpt>
      <trkpt lat="51.051302589476109" lon="5.016763592138887">
        <ele>-16.18</ele>
        <time>2022-08-28T12:56:07Z</time>
      </trkpt>
      <trkpt lat="51.05208252556622" lon="5.019083116203547">
        <ele>-14.869999999999999</ele>
        <time>2022-08-28T12:57:51Z</time>
      </trkpt>
      <trkpt lat="51.052281428128481" lon="5.019169198349118">
        <ele>-14.869999999999999</ele>
        <time>2022-08-28T12:58:07Z</time>
      </trkpt>
      <trkpt lat="51.052411682903767" lon="5.019127121195197">
        <ele>-14.880000000000001</ele>
        <time>2022-08-28T12:58:18Z</time>
      </trkpt>
      <trkpt lat="51.052490053698421" lon="5.019092001020908">
        <ele>-14.890000000000001</ele>
        <time>2022-08-28T12:58:26Z</time>
      </trkpt>
      <trkpt lat="51.052713179960847" lon="5.019025029614568">
        <ele>-14.890000000000001</ele>
        <time>2022-08-28T12:58:39Z</time>
      </trkpt>
      <trkpt lat="51.053292453289032" lon="5.018712049350143">
        <ele>-15.01</ele>
        <time>2022-08-28T12:59:18Z</time>
      </trkpt>
      <trkpt lat="51.053371829912066" lon="5.018652621656656">
        <ele>-15.029999999999999</ele>
        <time>2022-08-28T12:59:23Z</time>
      </trkpt>
      <trkpt lat="51.053517423570156" lon="5.01862496137619">
        <ele>-15.08</ele>
        <time>2022-08-28T12:59:31Z</time>
      </trkpt>
      <trkpt lat="51.053785057738423" lon="5.018476853147149">
        <ele>-15.199999999999999</ele>
        <time>2022-08-28T12:59:50Z</time>
      </trkpt>
      <trkpt lat="51.053839288651943" lon="5.018457574769855">
        <ele>-15.23</ele>
        <time>2022-08-28T12:59:56Z</time>
      </trkpt>
      <trkpt lat="51.054084291681647" lon="5.018588919192553">
        <ele>-15.35</ele>
        <time>2022-08-28T13:00:20Z</time>
      </trkpt>
      <trkpt lat="51.054116478189826" lon="5.018635606393218">
        <ele>-15.359999999999999</ele>
        <time>2022-08-28T13:00:23Z</time>
      </trkpt>
      <trkpt lat="51.055295057594776" lon="5.022761514410377">
        <ele>-19.43</ele>
        <time>2022-08-28T13:02:03Z</time>
      </trkpt>
      <trkpt lat="51.055472837761045" lon="5.02358939498663">
        <ele>-19.780000000000001</ele>
        <time>2022-08-28T13:02:35Z</time>
      </trkpt>
      <trkpt lat="51.055535199120641" lon="5.02428769133985">
        <ele>-20.09</ele>
        <time>2022-08-28T13:02:58Z</time>
      </trkpt>
      <trkpt lat="51.055552130565047" lon="5.024362374097109">
        <ele>-20.149999999999999</ele>
        <time>2022-08-28T13:03:02Z</time>
      </trkpt>
      <trkpt lat="51.055557327345014" lon="5.024599246680737">
        <ele>-20.280000000000001</ele>
        <time>2022-08-28T13:03:16Z</time>
      </trkpt>
      <trkpt lat="51.054917704313993" lon="5.025333501398563">
        <ele>-20.579999999999998</ele>
        <time>2022-08-28T13:04:18Z</time>
      </trkpt>
      <trkpt lat="51.054641017690301" lon="5.025532655417919">
        <ele>-20.609999999999999</ele>
        <time>2022-08-28T13:04:38Z</time>
      </trkpt>
      <trkpt lat="51.054419651627541" lon="5.025717727839947">
        <ele>-20.539999999999999</ele>
        <time>2022-08-28T13:04:57Z</time>
      </trkpt>
      <trkpt lat="51.054378328844905" lon="5.025742370635271">
        <ele>-20.57</ele>
        <time>2022-08-28T13:04:59Z</time>
      </trkpt>
      <trkpt lat="51.054328121244907" lon="5.025772377848625">
        <ele>-20.57</ele>
        <time>2022-08-28T13:05:03Z</time>
      </trkpt>
      <trkpt lat="51.053992342203856" lon="5.026136571541429">
        <ele>-20.5</ele>
        <time>2022-08-28T13:05:27Z</time>
      </trkpt>
      <trkpt lat="51.053976332768798" lon="5.026151826605201">
        <ele>-20.489999999999998</ele>
        <time>2022-08-28T13:05:28Z</time>
      </trkpt>
      <trkpt lat="51.05374775826931" lon="5.026297923177481">
        <ele>-20.449999999999999</ele>
        <time>2022-08-28T13:05:40Z</time>
      </trkpt>
      <trkpt lat="51.053641559556127" lon="5.026384592056274">
        <ele>-20.350000000000001</ele>
        <time>2022-08-28T13:05:54Z</time>
      </trkpt>
      <trkpt lat="51.053619850426912" lon="5.026410408318043">
        <ele>-20.32</ele>
        <time>2022-08-28T13:05:58Z</time>
      </trkpt>
      <trkpt lat="51.053564194589853" lon="5.026454580947757">
        <ele>-17.75</ele>
        <time>2022-08-28T13:06:10Z</time>
      </trkpt>
      <trkpt lat="51.053558746352792" lon="5.026461202651262">
        <ele>-17.73</ele>
        <time>2022-08-28T13:06:11Z</time>
      </trkpt>
      <trkpt lat="51.053335117176175" lon="5.026694722473621">
        <ele>-17.600000000000001</ele>
        <time>2022-08-28T13:06:28Z</time>
      </trkpt>
      <trkpt lat="51.0531145054847" lon="5.02683344297111">
        <ele>-17.43</ele>
        <time>2022-08-28T13:06:44Z</time>
      </trkpt>
      <trkpt lat="51.052912585437298" lon="5.02701960504055">
        <ele>-16.420000000000002</ele>
        <time>2022-08-28T13:07:01Z</time>
      </trkpt>
      <trkpt lat="51.052690213546157" lon="5.027223285287619">
        <ele>-16.23</ele>
        <time>2022-08-28T13:07:18Z</time>
      </trkpt>
      <trkpt lat="51.052491227164865" lon="5.027434509247541">
        <ele>-16.050000000000001</ele>
        <time>2022-08-28T13:07:37Z</time>
      </trkpt>
      <trkpt lat="51.052195765078068" lon="5.027679763734341">
        <ele>-15.859999999999999</ele>
        <time>2022-08-28T13:07:59Z</time>
      </trkpt>
      <trkpt lat="51.052109347656369" lon="5.027998359873891">
        <ele>-15.75</ele>
        <time>2022-08-28T13:08:16Z</time>
      </trkpt>
      <trkpt lat="51.052241278812289" lon="5.028353752568364">
        <ele>-15.630000000000001</ele>
        <time>2022-08-28T13:08:34Z</time>
      </trkpt>
      <trkpt lat="51.052944185212255" lon="5.030306484550238">
        <ele>-15.710000000000001</ele>
        <time>2022-08-28T13:10:09Z</time>
      </trkpt>
      <trkpt lat="51.052959188818932" lon="5.030638072639704">
        <ele>-15.779999999999999</ele>
        <time>2022-08-28T13:10:28Z</time>
      </trkpt>
      <trkpt lat="51.052820552140474" lon="5.030820881947875">
        <ele>-15.85</ele>
        <time>2022-08-28T13:10:45Z</time>
      </trkpt>
      <trkpt lat="51.052540764212608" lon="5.031004613265395">
        <ele>-15.99</ele>
        <time>2022-08-28T13:11:05Z</time>
      </trkpt>
      <trkpt lat="51.052330965176225" lon="5.031135454773903">
        <ele>-16.050000000000001</ele>
        <time>2022-08-28T13:11:17Z</time>
      </trkpt>
      <trkpt lat="51.052106162533164" lon="5.031331172212958">
        <ele>-16.09</ele>
        <time>2022-08-28T13:11:36Z</time>
      </trkpt>
      <trkpt lat="51.051618503406644" lon="5.031888401135802">
        <ele>-15.460000000000001</ele>
        <time>2022-08-28T13:13:27Z</time>
      </trkpt>
      <trkpt lat="51.051466204226017" lon="5.031932657584548">
        <ele>-15.300000000000001</ele>
        <time>2022-08-28T13:13:39Z</time>
      </trkpt>
      <trkpt lat="51.051371991634369" lon="5.032025361433625">
        <ele>-15.18</ele>
        <time>2022-08-28T13:13:48Z</time>
      </trkpt>
      <trkpt lat="51.051267385482788" lon="5.032111275941134">
        <ele>-14.99</ele>
        <time>2022-08-28T13:14:03Z</time>
      </trkpt>
      <trkpt lat="51.051041577011347" lon="5.032380670309067">
        <ele>-14.81</ele>
        <time>2022-08-28T13:14:23Z</time>
      </trkpt>
      <trkpt lat="51.050785761326551" lon="5.032459879294038">
        <ele>-14.65</ele>
        <time>2022-08-28T13:14:44Z</time>
      </trkpt>
      <trkpt lat="51.050520557910204" lon="5.032456191256642">
        <ele>-14.56</ele>
        <time>2022-08-28T13:15:03Z</time>
      </trkpt>
      <trkpt lat="51.050496669486165" lon="5.032521402463317">
        <ele>-14.51</ele>
        <time>2022-08-28T13:15:10Z</time>
      </trkpt>
      <trkpt lat="51.050469595938921" lon="5.032739834859967">
        <ele>-14.460000000000001</ele>
        <time>2022-08-28T13:15:27Z</time>
      </trkpt>
      <trkpt lat="51.050427602604032" lon="5.03324861638248">
        <ele>-14.460000000000001</ele>
        <time>2022-08-28T13:15:44Z</time>
      </trkpt>
      <trkpt lat="51.050464566797018" lon="5.033526225015521">
        <ele>-14.390000000000001</ele>
        <time>2022-08-28T13:16:04Z</time>
      </trkpt>
      <trkpt lat="51.050465740263462" lon="5.033696377649903">
        <ele>-14.4</ele>
        <time>2022-08-28T13:16:10Z</time>
      </trkpt>
      <trkpt lat="51.050526676699519" lon="5.033880276605487">
        <ele>-14.390000000000001</ele>
        <time>2022-08-28T13:16:24Z</time>
      </trkpt>
      <trkpt lat="51.050539584830403" lon="5.034197615459561">
        <ele>-14.359999999999999</ele>
        <time>2022-08-28T13:16:37Z</time>
      </trkpt>
      <trkpt lat="51.05051988735795" lon="5.034343544393778">
        <ele>-14.380000000000001</ele>
        <time>2022-08-28T13:16:43Z</time>
      </trkpt>
      <trkpt lat="51.050519719719887" lon="5.034377239644527">
        <ele>-14.380000000000001</ele>
        <time>2022-08-28T13:16:45Z</time>
      </trkpt>
      <trkpt lat="51.050475463271141" lon="5.03458309918642">
        <ele>-14.359999999999999</ele>
        <time>2022-08-28T13:17:01Z</time>
      </trkpt>
      <trkpt lat="51.05045291595161" lon="5.035495469346643">
        <ele>-14.32</ele>
        <time>2022-08-28T13:17:44Z</time>
      </trkpt>
      <trkpt lat="51.050501530990005" lon="5.036103827878833">
        <ele>-14.23</ele>
        <time>2022-08-28T13:18:09Z</time>
      </trkpt>
      <trkpt lat="51.050512511283159" lon="5.036202985793352">
        <ele>-14.220000000000001</ele>
        <time>2022-08-28T13:18:13Z</time>
      </trkpt>
      <trkpt lat="51.050538579002023" lon="5.036316812038422">
        <ele>-14.210000000000001</ele>
        <time>2022-08-28T13:18:17Z</time>
      </trkpt>
      <trkpt lat="51.050560288131237" lon="5.036360984668136">
        <ele>-14.19</ele>
        <time>2022-08-28T13:18:21Z</time>
      </trkpt>
      <trkpt lat="51.050594486296177" lon="5.036383867263794">
        <ele>-14.18</ele>
        <time>2022-08-28T13:18:24Z</time>
      </trkpt>
      <trkpt lat="51.050669755786657" lon="5.036425357684493">
        <ele>-14.17</ele>
        <time>2022-08-28T13:18:30Z</time>
      </trkpt>
      <trkpt lat="51.050782240927219" lon="5.036625685170293">
        <ele>-14.18</ele>
        <time>2022-08-28T13:18:49Z</time>
      </trkpt>
      <trkpt lat="51.050872094929218" lon="5.03660841844976">
        <ele>-14.17</ele>
        <time>2022-08-28T13:18:56Z</time>
      </trkpt>
      <trkpt lat="51.050890032202005" lon="5.036755101755261">
        <ele>-11.869999999999999</ele>
        <time>2022-08-28T13:22:41Z</time>
      </trkpt>
      <trkpt lat="51.050900844857097" lon="5.036832801997662">
        <ele>-11.619999999999999</ele>
        <time>2022-08-28T13:22:55Z</time>
      </trkpt>
      <trkpt lat="51.050954405218363" lon="5.036939503625035">
        <ele>-11.34</ele>
        <time>2022-08-28T13:23:15Z</time>
      </trkpt>
      <trkpt lat="51.051061358302832" lon="5.037119211629033">
        <ele>-10.300000000000001</ele>
        <time>2022-08-28T13:23:32Z</time>
      </trkpt>
      <trkpt lat="51.050988603383303" lon="5.037305373698473">
        <ele>-10.119999999999999</ele>
        <time>2022-08-28T13:23:50Z</time>
      </trkpt>
      <trkpt lat="51.050952896475792" lon="5.037320628762245">
        <ele>-9.800000000000001</ele>
        <time>2022-08-28T13:24:19Z</time>
      </trkpt>
      <trkpt lat="51.050913669168949" lon="5.037291124463081">
        <ele>-5.09</ele>
        <time>2022-08-28T13:29:12Z</time>
      </trkpt>
      <trkpt lat="51.050854073837399" lon="5.03663138486445">
        <ele>8.470000000000001</ele>
        <time>2022-08-28T14:04:24Z</time>
      </trkpt>
      <trkpt lat="51.050739577040076" lon="5.036688800901175">
        <ele>8.35</ele>
        <time>2022-08-28T14:04:37Z</time>
      </trkpt>
      <trkpt lat="51.050552744418383" lon="5.036776978522539">
        <ele>8.15</ele>
        <time>2022-08-28T14:04:57Z</time>
      </trkpt>
      <trkpt lat="51.05049004778266" lon="5.036776810884476">
        <ele>8.119999999999999</ele>
        <time>2022-08-28T14:05:00Z</time>
      </trkpt>
      <trkpt lat="51.050403127446771" lon="5.036795334890485">
        <ele>8.060000000000001</ele>
        <time>2022-08-28T14:05:05Z</time>
      </trkpt>
      <trkpt lat="51.050266586244106" lon="5.036795334890485">
        <ele>7.99</ele>
        <time>2022-08-28T14:05:11Z</time>
      </trkpt>
      <trkpt lat="51.050207326188684" lon="5.036602634936571">
        <ele>7.71</ele>
        <time>2022-08-28T14:05:33Z</time>
      </trkpt>
      <trkpt lat="51.050171367824078" lon="5.036243051290512">
        <ele>7.63</ele>
        <time>2022-08-28T14:05:39Z</time>
      </trkpt>
      <trkpt lat="51.050146138295531" lon="5.035829236730933">
        <ele>7.38</ele>
        <time>2022-08-28T14:06:00Z</time>
      </trkpt>
      <trkpt lat="51.050083106383681" lon="5.035642068833113">
        <ele>7.29</ele>
        <time>2022-08-28T14:06:06Z</time>
      </trkpt>
      <trkpt lat="51.050061900168657" lon="5.035192212089896">
        <ele>7.05</ele>
        <time>2022-08-28T14:06:25Z</time>
      </trkpt>
      <trkpt lat="51.050010016188025" lon="5.034695835784078">
        <ele>6.79</ele>
        <time>2022-08-28T14:06:46Z</time>
      </trkpt>
      <trkpt lat="51.04996869340539" lon="5.034261401742697">
        <ele>6.48</ele>
        <time>2022-08-28T14:07:05Z</time>
      </trkpt>
      <trkpt lat="51.049954360350966" lon="5.033640051260591">
        <ele>6.06</ele>
        <time>2022-08-28T14:07:26Z</time>
      </trkpt>
      <trkpt lat="51.049801139160991" lon="5.031783375889063">
        <ele>3.75</ele>
        <time>2022-08-28T14:08:59Z</time>
      </trkpt>
      <trkpt lat="51.049747243523598" lon="5.031141908839345">
        <ele>3.11</ele>
        <time>2022-08-28T14:09:19Z</time>
      </trkpt>
      <trkpt lat="51.049431497231126" lon="5.031201587989926">
        <ele>2.69</ele>
        <time>2022-08-28T14:09:32Z</time>
      </trkpt>
      <trkpt lat="51.049236366525292" lon="5.031285239383578">
        <ele>2.26</ele>
        <time>2022-08-28T14:09:46Z</time>
      </trkpt>
      <trkpt lat="51.048896396532655" lon="5.031390348449349">
        <ele>1.62</ele>
        <time>2022-08-28T14:10:07Z</time>
      </trkpt>
      <trkpt lat="51.048786342144012" lon="5.031447932124138">
        <ele>1.18</ele>
        <time>2022-08-28T14:10:21Z</time>
      </trkpt>
      <trkpt lat="51.0487300157547" lon="5.031489757820964">
        <ele>0.71</ele>
        <time>2022-08-28T14:10:37Z</time>
      </trkpt>
      <trkpt lat="51.048300359398127" lon="5.031369645148516">
        <ele>0</ele>
        <time>2022-08-28T14:11:06Z</time>
      </trkpt>
      <trkpt lat="51.048056529834867" lon="5.030876789242029">
        <ele>-0.44</ele>
        <time>2022-08-28T14:11:27Z</time>
      </trkpt>
      <trkpt lat="51.047862153500319" lon="5.030395416542888">
        <ele>-0.93</ele>
        <time>2022-08-28T14:11:49Z</time>
      </trkpt>
      <trkpt lat="51.047717984765768" lon="5.029981769621372">
        <ele>-1.37</ele>
        <time>2022-08-28T14:12:11Z</time>
      </trkpt>
      <trkpt lat="51.047587478533387" lon="5.029625538736582">
        <ele>-1.67</ele>
        <time>2022-08-28T14:12:25Z</time>
      </trkpt>
      <trkpt lat="51.047254633158445" lon="5.02858660183847">
        <ele>-2.57</ele>
        <time>2022-08-28T14:13:06Z</time>
      </trkpt>
      <trkpt lat="51.046088626608253" lon="5.025314390659332">
        <ele>-3.44</ele>
        <time>2022-08-28T14:18:27Z</time>
      </trkpt>
      <trkpt lat="51.046058116480708" lon="5.025363340973854">
        <ele>-3.42</ele>
        <time>2022-08-28T14:18:31Z</time>
      </trkpt>
      <trkpt lat="51.045950911939144" lon="5.025538019835949">
        <ele>-3.5</ele>
        <time>2022-08-28T14:18:51Z</time>
      </trkpt>
      <trkpt lat="51.045945379883051" lon="5.025555202737451">
        <ele>-3.5</ele>
        <time>2022-08-28T14:18:52Z</time>
      </trkpt>
      <trkpt lat="51.045336434617639" lon="5.025858795270324">
        <ele>-6.3</ele>
        <time>2022-08-28T14:19:44Z</time>
      </trkpt>
      <trkpt lat="51.045253202319145" lon="5.025872373953462">
        <ele>-7.1</ele>
        <time>2022-08-28T14:19:48Z</time>
      </trkpt>
      <trkpt lat="51.045178100466728" lon="5.025896094739437">
        <ele>-7.13</ele>
        <time>2022-08-28T14:19:54Z</time>
      </trkpt>
      <trkpt lat="51.045161169022322" lon="5.025896010920405">
        <ele>-7.12</ele>
        <time>2022-08-28T14:19:55Z</time>
      </trkpt>
      <trkpt lat="51.045145913958549" lon="5.025893244892359">
        <ele>-7.12</ele>
        <time>2022-08-28T14:19:56Z</time>
      </trkpt>
      <trkpt lat="51.045116074383259" lon="5.02589525654912">
        <ele>-7.15</ele>
        <time>2022-08-28T14:19:58Z</time>
      </trkpt>
      <trkpt lat="51.044784570112824" lon="5.026076892390847">
        <ele>-7.32</ele>
        <time>2022-08-28T14:20:19Z</time>
      </trkpt>
      <trkpt lat="51.044753808528185" lon="5.026105893775821">
        <ele>-7.35</ele>
        <time>2022-08-28T14:20:22Z</time>
      </trkpt>
      <trkpt lat="51.044550547376275" lon="5.026186862960458">
        <ele>-7.48</ele>
        <time>2022-08-28T14:20:36Z</time>
      </trkpt>
      <trkpt lat="51.044410653412342" lon="5.026251403614879">
        <ele>-7.58</ele>
        <time>2022-08-28T14:20:46Z</time>
      </trkpt>
      <trkpt lat="51.044207224622369" lon="5.026312172412872">
        <ele>-7.76</ele>
        <time>2022-08-28T14:21:05Z</time>
      </trkpt>
      <trkpt lat="51.043886952102184" lon="5.026646442711353">
        <ele>-8.02</ele>
        <time>2022-08-28T14:21:27Z</time>
      </trkpt>
      <trkpt lat="51.043657120317221" lon="5.026893708854914">
        <ele>-8.220000000000001</ele>
        <time>2022-08-28T14:21:47Z</time>
      </trkpt>
      <trkpt lat="51.043624766170979" lon="5.026922458782792">
        <ele>-8.24</ele>
        <time>2022-08-28T14:21:48Z</time>
      </trkpt>
      <trkpt lat="51.043504402041435" lon="5.027060508728027">
        <ele>-8.5</ele>
        <time>2022-08-28T14:22:05Z</time>
      </trkpt>
      <trkpt lat="51.043493589386344" lon="5.02741145901382">
        <ele>-8.68</ele>
        <time>2022-08-28T14:22:19Z</time>
      </trkpt>
      <trkpt lat="51.043485458940268" lon="5.02788444980979">
        <ele>-8.92</ele>
        <time>2022-08-28T14:22:37Z</time>
      </trkpt>
      <trkpt lat="51.043443968519568" lon="5.028290469199419">
        <ele>-9.24</ele>
        <time>2022-08-28T14:22:56Z</time>
      </trkpt>
      <trkpt lat="51.043437849730253" lon="5.028636809438467">
        <ele>-9.470000000000001</ele>
        <time>2022-08-28T14:23:13Z</time>
      </trkpt>
      <trkpt lat="51.043445812538266" lon="5.029153637588024">
        <ele>-9.640000000000001</ele>
        <time>2022-08-28T14:23:28Z</time>
      </trkpt>
      <trkpt lat="51.043570702895522" lon="5.029499223455787">
        <ele>-9.789999999999999</ele>
        <time>2022-08-28T14:23:45Z</time>
      </trkpt>
      <trkpt lat="51.043611187487841" lon="5.029557226225734">
        <ele>-9.84</ele>
        <time>2022-08-28T14:23:49Z</time>
      </trkpt>
      <trkpt lat="51.043625771999359" lon="5.029724780470133">
        <ele>-9.949999999999999</ele>
        <time>2022-08-28T14:24:00Z</time>
      </trkpt>
      <trkpt lat="51.043588388711214" lon="5.029849754646421">
        <ele>-10.140000000000001</ele>
        <time>2022-08-28T14:24:25Z</time>
      </trkpt>
      <trkpt lat="51.043554106727242" lon="5.030245967209339">
        <ele>-10.27</ele>
        <time>2022-08-28T14:24:46Z</time>
      </trkpt>
      <trkpt lat="51.043552262708545" lon="5.030487533658743">
        <ele>-10.369999999999999</ele>
        <time>2022-08-28T14:24:56Z</time>
      </trkpt>
      <trkpt lat="51.04354178532958" lon="5.030605718493462">
        <ele>-10.4</ele>
        <time>2022-08-28T14:25:01Z</time>
      </trkpt>
      <trkpt lat="51.043544635176659" lon="5.030628517270088">
        <ele>-10.4</ele>
        <time>2022-08-28T14:25:02Z</time>
      </trkpt>
      <trkpt lat="51.043545557186007" lon="5.030658775940538">
        <ele>-10.41</ele>
        <time>2022-08-28T14:25:03Z</time>
      </trkpt>
      <trkpt lat="51.043539186939597" lon="5.030991286039352">
        <ele>-10.529999999999999</ele>
        <time>2022-08-28T14:25:18Z</time>
      </trkpt>
      <trkpt lat="51.04349484667182" lon="5.031345337629318">
        <ele>-8.300000000000001</ele>
        <time>2022-08-28T14:25:32Z</time>
      </trkpt>
      <trkpt lat="51.043491745367646" lon="5.031367717310786">
        <ele>-8.32</ele>
        <time>2022-08-28T14:25:33Z</time>
      </trkpt>
      <trkpt lat="51.043497361242771" lon="5.031606014817953">
        <ele>-8.44</ele>
        <time>2022-08-28T14:25:44Z</time>
      </trkpt>
      <trkpt lat="51.043426534160972" lon="5.03211890347302">
        <ele>-8.51</ele>
        <time>2022-08-28T14:25:57Z</time>
      </trkpt>
      <trkpt lat="51.043408429250121" lon="5.032590636983514">
        <ele>-8.550000000000001</ele>
        <time>2022-08-28T14:26:08Z</time>
      </trkpt>
      <trkpt lat="51.043400131165981" lon="5.033169407397509">
        <ele>-8.550000000000001</ele>
        <time>2022-08-28T14:26:20Z</time>
      </trkpt>
      <trkpt lat="51.043416392058134" lon="5.033624796196818">
        <ele>-8.470000000000001</ele>
        <time>2022-08-28T14:26:28Z</time>
      </trkpt>
      <trkpt lat="51.043406669050455" lon="5.03368497826159">
        <ele>-8.470000000000001</ele>
        <time>2022-08-28T14:26:29Z</time>
      </trkpt>
      <trkpt lat="51.043400298804045" lon="5.034351674839854">
        <ele>-8.42</ele>
        <time>2022-08-28T14:26:41Z</time>
      </trkpt>
      <trkpt lat="51.04335855692625" lon="5.034929858520627">
        <ele>-7.48</ele>
        <time>2022-08-28T14:26:51Z</time>
      </trkpt>
      <trkpt lat="51.043395102024078" lon="5.035523464903235">
        <ele>-7.37</ele>
        <time>2022-08-28T14:27:02Z</time>
      </trkpt>
      <trkpt lat="51.043475484475493" lon="5.036217318847776">
        <ele>-7.13</ele>
        <time>2022-08-28T14:27:15Z</time>
      </trkpt>
      <trkpt lat="51.043533068150282" lon="5.036778319627047">
        <ele>-6.93</ele>
        <time>2022-08-28T14:27:25Z</time>
      </trkpt>
      <trkpt lat="51.04358964599669" lon="5.037215854972601">
        <ele>-6.73</ele>
        <time>2022-08-28T14:27:36Z</time>
      </trkpt>
      <trkpt lat="51.043583024293184" lon="5.037271594628692">
        <ele>-6.68</ele>
        <time>2022-08-28T14:27:38Z</time>
      </trkpt>
      <trkpt lat="51.043581180274487" lon="5.037303697317839">
        <ele>-6.66</ele>
        <time>2022-08-28T14:27:39Z</time>
      </trkpt>
      <trkpt lat="51.043582689017057" lon="5.037335800006986">
        <ele>-6.64</ele>
        <time>2022-08-28T14:27:40Z</time>
      </trkpt>
      <trkpt lat="51.043584700673819" lon="5.037368824705482">
        <ele>-6.62</ele>
        <time>2022-08-28T14:27:41Z</time>
      </trkpt>
      <trkpt lat="51.043582605198026" lon="5.037409644573927">
        <ele>-6.6</ele>
        <time>2022-08-28T14:27:42Z</time>
      </trkpt>
      <trkpt lat="51.043601548299193" lon="5.037544928491116">
        <ele>-6.51</ele>
        <time>2022-08-28T14:27:47Z</time>
      </trkpt>
      <trkpt lat="51.043604901060462" lon="5.03758130595088">
        <ele>-6.49</ele>
        <time>2022-08-28T14:27:48Z</time>
      </trkpt>
      <trkpt lat="51.043603308498859" lon="5.037613995373249">
        <ele>-6.47</ele>
        <time>2022-08-28T14:27:49Z</time>
      </trkpt>
      <trkpt lat="51.043661311268806" lon="5.037845838814974">
        <ele>-6.34</ele>
        <time>2022-08-28T14:27:57Z</time>
      </trkpt>
      <trkpt lat="51.043753009289503" lon="5.038241967558861">
        <ele>-6.17</ele>
        <time>2022-08-28T14:28:14Z</time>
      </trkpt>
      <trkpt lat="51.043821237981319" lon="5.038808668032289">
        <ele>-6</ele>
        <time>2022-08-28T14:28:37Z</time>
      </trkpt>
      <trkpt lat="51.043857196345925" lon="5.038995668292046">
        <ele>-5.94</ele>
        <time>2022-08-28T14:28:48Z</time>
      </trkpt>
      <trkpt lat="51.043895836919546" lon="5.039311246946454">
        <ele>-5.9</ele>
        <time>2022-08-28T14:29:00Z</time>
      </trkpt>
      <trkpt lat="51.043906062841415" lon="5.03939607180655">
        <ele>-5.89</ele>
        <time>2022-08-28T14:29:04Z</time>
      </trkpt>
      <trkpt lat="51.043912265449762" lon="5.039434041827917">
        <ele>-5.88</ele>
        <time>2022-08-28T14:29:06Z</time>
      </trkpt>
      <trkpt lat="51.043911091983318" lon="5.039459187537432">
        <ele>-5.88</ele>
        <time>2022-08-28T14:29:07Z</time>
      </trkpt>
      <trkpt lat="51.043954007327557" lon="5.039776861667633">
        <ele>-5.83</ele>
        <time>2022-08-28T14:29:20Z</time>
      </trkpt>
      <trkpt lat="51.043969597667456" lon="5.039893118664622">
        <ele>-5.8</ele>
        <time>2022-08-28T14:29:26Z</time>
      </trkpt>
      <trkpt lat="51.044012345373631" lon="5.040020439773798">
        <ele>-5.76</ele>
        <time>2022-08-28T14:29:33Z</time>
      </trkpt>
      <trkpt lat="51.044019469991326" lon="5.040043322369456">
        <ele>-5.76</ele>
        <time>2022-08-28T14:29:34Z</time>
      </trkpt>
      <trkpt lat="51.044024834409356" lon="5.040067378431559">
        <ele>-5.76</ele>
        <time>2022-08-28T14:29:35Z</time>
      </trkpt>
      <trkpt lat="51.044058948755264" lon="5.040411120280623">
        <ele>-5.74</ele>
        <time>2022-08-28T14:29:50Z</time>
      </trkpt>
      <trkpt lat="51.044138912111521" lon="5.040922835469246">
        <ele>-5.67</ele>
        <time>2022-08-28T14:30:10Z</time>
      </trkpt>
      <trkpt lat="51.044159028679132" lon="5.041326927021146">
        <ele>-5.65</ele>
        <time>2022-08-28T14:30:24Z</time>
      </trkpt>
      <trkpt lat="51.044160788878798" lon="5.041459193453193">
        <ele>-5.64</ele>
        <time>2022-08-28T14:30:25Z</time>
      </trkpt>
      <trkpt lat="51.04399424046278" lon="5.041543766856194">
        <ele>-4.72</ele>
        <time>2022-08-28T14:30:41Z</time>
      </trkpt>
      <trkpt lat="51.043983846902847" lon="5.041545610874891">
        <ele>-4.71</ele>
        <time>2022-08-28T14:30:42Z</time>
      </trkpt>
      <trkpt lat="51.043971609324217" lon="5.041551142930985">
        <ele>-4.72</ele>
        <time>2022-08-28T14:30:43Z</time>
      </trkpt>
      <trkpt lat="51.043957024812698" lon="5.041562458500266">
        <ele>-4.73</ele>
        <time>2022-08-28T14:30:44Z</time>
      </trkpt>
      <trkpt lat="51.043815286830068" lon="5.041618533432484">
        <ele>-4.8</ele>
        <time>2022-08-28T14:30:56Z</time>
      </trkpt>
      <trkpt lat="51.043673129752278" lon="5.041678212583065">
        <ele>-4.12</ele>
        <time>2022-08-28T14:31:08Z</time>
      </trkpt>
      <trkpt lat="51.043662149459124" lon="5.041685337200761">
        <ele>-3.33</ele>
        <time>2022-08-28T14:31:09Z</time>
      </trkpt>
      <trkpt lat="51.043640859425068" lon="5.041687767952681">
        <ele>-3.34</ele>
        <time>2022-08-28T14:31:10Z</time>
      </trkpt>
      <trkpt lat="51.043538264930248" lon="5.041684247553349">
        <ele>-3.39</ele>
        <time>2022-08-28T14:31:16Z</time>
      </trkpt>
      <trkpt lat="51.043517058715224" lon="5.041690450161696">
        <ele>-3.4</ele>
        <time>2022-08-28T14:31:17Z</time>
      </trkpt>
      <trkpt lat="51.043501384556293" lon="5.041691036894918">
        <ele>-3.41</ele>
        <time>2022-08-28T14:31:18Z</time>
      </trkpt>
      <trkpt lat="51.043317737057805" lon="5.041808551177383">
        <ele>-2.78</ele>
        <time>2022-08-28T14:31:34Z</time>
      </trkpt>
      <trkpt lat="51.043080780655146" lon="5.04185289144516">
        <ele>-2.22</ele>
        <time>2022-08-28T14:31:51Z</time>
      </trkpt>
      <trkpt lat="51.04289629496634" lon="5.041903015226126">
        <ele>-2.53</ele>
        <time>2022-08-28T14:32:11Z</time>
      </trkpt>
      <trkpt lat="51.042873077094555" lon="5.041902512311935">
        <ele>-2.67</ele>
        <time>2022-08-28T14:32:19Z</time>
      </trkpt>
      <trkpt lat="51.042718011885881" lon="5.041974596679211">
        <ele>-1.99</ele>
        <time>2022-08-28T14:32:35Z</time>
      </trkpt>
      <trkpt lat="51.042518271133304" lon="5.042029079049826">
        <ele>-1.3</ele>
        <time>2022-08-28T14:32:52Z</time>
      </trkpt>
      <trkpt lat="51.041632723063231" lon="5.042297970503569">
        <ele>2.02</ele>
        <time>2022-08-28T14:33:59Z</time>
      </trkpt>
      <trkpt lat="51.041013384237885" lon="5.042537609115243">
        <ele>4.58</ele>
        <time>2022-08-28T14:34:42Z</time>
      </trkpt>
      <trkpt lat="51.04064516723156" lon="5.042536938562989">
        <ele>5.69</ele>
        <time>2022-08-28T14:36:35Z</time>
      </trkpt>
      <trkpt lat="51.040681879967451" lon="5.042749084532261">
        <ele>2.73</ele>
        <time>2022-08-28T14:46:30Z</time>
      </trkpt>
      <trkpt lat="51.040717251598835" lon="5.042994506657124">
        <ele>2.74</ele>
        <time>2022-08-28T14:46:31Z</time>
      </trkpt>
      <trkpt lat="51.040735943242908" lon="5.043053766712546">
        <ele>2.76</ele>
        <time>2022-08-28T14:46:33Z</time>
      </trkpt>
      <trkpt lat="51.040745414793491" lon="5.043245796114206">
        <ele>1.82</ele>
        <time>2022-08-28T14:46:48Z</time>
      </trkpt>
      <trkpt lat="51.04082403704524" lon="5.043914169073105">
        <ele>2.01</ele>
        <time>2022-08-28T14:47:05Z</time>
      </trkpt>
      <trkpt lat="51.040825797244906" lon="5.043945265933871">
        <ele>2.02</ele>
        <time>2022-08-28T14:47:06Z</time>
      </trkpt>
      <trkpt lat="51.040877178311348" lon="5.044306023046374">
        <ele>2.16</ele>
        <time>2022-08-28T14:47:21Z</time>
      </trkpt>
      <trkpt lat="51.040899893268943" lon="5.044497465714812">
        <ele>2.23</ele>
        <time>2022-08-28T14:47:29Z</time>
      </trkpt>
      <trkpt lat="51.040906347334385" lon="5.044518504291773">
        <ele>2.24</ele>
        <time>2022-08-28T14:47:30Z</time>
      </trkpt>
      <trkpt lat="51.040907436981797" lon="5.044540632516146">
        <ele>2.25</ele>
        <time>2022-08-28T14:47:31Z</time>
      </trkpt>
      <trkpt lat="51.040914477780461" lon="5.044559827074409">
        <ele>2.26</ele>
        <time>2022-08-28T14:47:32Z</time>
      </trkpt>
      <trkpt lat="51.040919758379459" lon="5.044577345252037">
        <ele>2.27</ele>
        <time>2022-08-28T14:47:33Z</time>
      </trkpt>
      <trkpt lat="51.041009863838553" lon="5.045015467330813">
        <ele>4.85</ele>
        <time>2022-08-28T14:47:55Z</time>
      </trkpt>
      <trkpt lat="51.041204743087292" lon="5.045756595209241">
        <ele>5.04</ele>
        <time>2022-08-28T14:48:27Z</time>
      </trkpt>
      <trkpt lat="51.041277498006821" lon="5.046157836914063">
        <ele>5.13</ele>
        <time>2022-08-28T14:48:47Z</time>
      </trkpt>
      <trkpt lat="51.041374476626515" lon="5.0465979706496">
        <ele>5.17</ele>
        <time>2022-08-28T14:49:06Z</time>
      </trkpt>
      <trkpt lat="51.041417643427849" lon="5.04693022929132">
        <ele>5.15</ele>
        <time>2022-08-28T14:49:19Z</time>
      </trkpt>
      <trkpt lat="51.041484698653221" lon="5.046981694176793">
        <ele>5.13</ele>
        <time>2022-08-28T14:49:35Z</time>
      </trkpt>
      <trkpt lat="51.041506491601467" lon="5.046976329758763">
        <ele>2.7</ele>
        <time>2022-08-28T14:49:36Z</time>
      </trkpt>
      <trkpt lat="51.041534319519997" lon="5.046968702226877">
        <ele>2.72</ele>
        <time>2022-08-28T14:49:37Z</time>
      </trkpt>
      <trkpt lat="51.04183841496706" lon="5.046869125217199">
        <ele>1.12</ele>
        <time>2022-08-28T14:49:47Z</time>
      </trkpt>
      <trkpt lat="51.042291456833482" lon="5.046781282871962">
        <ele>-0.88</ele>
        <time>2022-08-28T14:49:58Z</time>
      </trkpt>
      <trkpt lat="51.042669899761677" lon="5.046667959541082">
        <ele>-2.55</ele>
        <time>2022-08-28T14:50:08Z</time>
      </trkpt>
      <trkpt lat="51.043024705722928" lon="5.046562012284994">
        <ele>-3.24</ele>
        <time>2022-08-28T14:50:18Z</time>
      </trkpt>
      <trkpt lat="51.043418068438768" lon="5.046450281515718">
        <ele>-3.9</ele>
        <time>2022-08-28T14:50:29Z</time>
      </trkpt>
      <trkpt lat="51.043697185814381" lon="5.046352380886674">
        <ele>-4.64</ele>
        <time>2022-08-28T14:50:45Z</time>
      </trkpt>
      <trkpt lat="51.044016620144248" lon="5.046220617368817">
        <ele>-6.04</ele>
        <time>2022-08-28T14:51:03Z</time>
      </trkpt>
      <trkpt lat="51.044213930144906" lon="5.046150544658303">
        <ele>-5.97</ele>
        <time>2022-08-28T14:51:15Z</time>
      </trkpt>
      <trkpt lat="51.044525485485792" lon="5.046033952385187">
        <ele>-5.84</ele>
        <time>2022-08-28T14:51:33Z</time>
      </trkpt>
      <trkpt lat="51.044693207368255" lon="5.045982152223587">
        <ele>-6.76</ele>
        <time>2022-08-28T14:51:46Z</time>
      </trkpt>
      <trkpt lat="51.044770320877433" lon="5.046039987355471">
        <ele>-6.65</ele>
        <time>2022-08-28T14:52:03Z</time>
      </trkpt>
      <trkpt lat="51.044774428009987" lon="5.04606144502759">
        <ele>-6.62</ele>
        <time>2022-08-28T14:52:04Z</time>
      </trkpt>
      <trkpt lat="51.044825222343206" lon="5.046248193830252">
        <ele>-6.54</ele>
        <time>2022-08-28T14:52:13Z</time>
      </trkpt>
      <trkpt lat="51.044833185151219" lon="5.046266885474324">
        <ele>-6.54</ele>
        <time>2022-08-28T14:52:14Z</time>
      </trkpt>
      <trkpt lat="51.044835448265076" lon="5.046287588775158">
        <ele>-6.53</ele>
        <time>2022-08-28T14:52:15Z</time>
      </trkpt>
      <trkpt lat="51.04483955539763" lon="5.046307956799865">
        <ele>-6.51</ele>
        <time>2022-08-28T14:52:16Z</time>
      </trkpt>
      <trkpt lat="51.044842321425676" lon="5.046330252662301">
        <ele>-6.51</ele>
        <time>2022-08-28T14:52:17Z</time>
      </trkpt>
      <trkpt lat="51.044846763834357" lon="5.046356320381165">
        <ele>-6.5</ele>
        <time>2022-08-28T14:52:18Z</time>
      </trkpt>
      <trkpt lat="51.044850870966911" lon="5.046381046995521">
        <ele>-6.49</ele>
        <time>2022-08-28T14:52:19Z</time>
      </trkpt>
      <trkpt lat="51.044854810461402" lon="5.046400828287005">
        <ele>-6.48</ele>
        <time>2022-08-28T14:52:20Z</time>
      </trkpt>
      <trkpt lat="51.044922871515155" lon="5.046790922060609">
        <ele>-6.33</ele>
        <time>2022-08-28T14:52:37Z</time>
      </trkpt>
      <trkpt lat="51.044923542067409" lon="5.046810703352094">
        <ele>-6.32</ele>
        <time>2022-08-28T14:52:38Z</time>
      </trkpt>
      <trkpt lat="51.044925469905138" lon="5.046831155195832">
        <ele>-6.31</ele>
        <time>2022-08-28T14:52:39Z</time>
      </trkpt>
      <trkpt lat="51.04492848739028" lon="5.046850685030222">
        <ele>-6.3</ele>
        <time>2022-08-28T14:52:40Z</time>
      </trkpt>
      <trkpt lat="51.044964278116822" lon="5.047203898429871">
        <ele>-6.16</ele>
        <time>2022-08-28T14:52:57Z</time>
      </trkpt>
      <trkpt lat="51.044968971982598" lon="5.047249915078282">
        <ele>-6.14</ele>
        <time>2022-08-28T14:52:59Z</time>
      </trkpt>
      <trkpt lat="51.044968971982598" lon="5.047284699976444">
        <ele>-6.14</ele>
        <time>2022-08-28T14:53:00Z</time>
      </trkpt>
      <trkpt lat="51.044973246753216" lon="5.047315796837211">
        <ele>-6.13</ele>
        <time>2022-08-28T14:53:01Z</time>
      </trkpt>
      <trkpt lat="51.044976180419326" lon="5.047344882041216">
        <ele>-6.11</ele>
        <time>2022-08-28T14:53:02Z</time>
      </trkpt>
      <trkpt lat="51.044978778809309" lon="5.047375224530697">
        <ele>-6.1</ele>
        <time>2022-08-28T14:53:03Z</time>
      </trkpt>
      <trkpt lat="51.044980706647038" lon="5.047401795163751">
        <ele>-6.09</ele>
        <time>2022-08-28T14:53:04Z</time>
      </trkpt>
      <trkpt lat="51.044981796294451" lon="5.047565074637532">
        <ele>-6.06</ele>
        <time>2022-08-28T14:53:11Z</time>
      </trkpt>
      <trkpt lat="51.044983472675085" lon="5.047587286680937">
        <ele>-6.05</ele>
        <time>2022-08-28T14:53:12Z</time>
      </trkpt>
      <trkpt lat="51.04498079046607" lon="5.047611510381103">
        <ele>-6.04</ele>
        <time>2022-08-28T14:53:13Z</time>
      </trkpt>
      <trkpt lat="51.044981712475419" lon="5.047638583928347">
        <ele>-6.03</ele>
        <time>2022-08-28T14:53:14Z</time>
      </trkpt>
      <trkpt lat="51.04498665779829" lon="5.04766465164721">
        <ele>-6.03</ele>
        <time>2022-08-28T14:53:15Z</time>
      </trkpt>
      <trkpt lat="51.044989172369242" lon="5.047686779871583">
        <ele>-6.01</ele>
        <time>2022-08-28T14:53:16Z</time>
      </trkpt>
      <trkpt lat="51.044994788244367" lon="5.047706225886941">
        <ele>-5.99</ele>
        <time>2022-08-28T14:53:17Z</time>
      </trkpt>
      <trkpt lat="51.045000571757555" lon="5.047724498435855">
        <ele>-5.98</ele>
        <time>2022-08-28T14:53:18Z</time>
      </trkpt>
      <trkpt lat="51.045047678053379" lon="5.048041418194771">
        <ele>-3.63</ele>
        <time>2022-08-28T14:53:31Z</time>
      </trkpt>
      <trkpt lat="51.045098723843694" lon="5.048408545553684">
        <ele>-3.47</ele>
        <time>2022-08-28T14:53:46Z</time>
      </trkpt>
      <trkpt lat="51.045145997777581" lon="5.048774415627122">
        <ele>-3.33</ele>
        <time>2022-08-28T14:54:02Z</time>
      </trkpt>
      <trkpt lat="51.045195367187262" lon="5.049146823585033">
        <ele>-3.16</ele>
        <time>2022-08-28T14:54:19Z</time>
      </trkpt>
      <trkpt lat="51.045233337208629" lon="5.049454439431429">
        <ele>-3.01</ele>
        <time>2022-08-28T14:54:32Z</time>
      </trkpt>
      <trkpt lat="51.045291256159544" lon="5.049834391102195">
        <ele>-2.83</ele>
        <time>2022-08-28T14:54:49Z</time>
      </trkpt>
      <trkpt lat="51.045334003865719" lon="5.050152065232396">
        <ele>-1.89</ele>
        <time>2022-08-28T14:55:03Z</time>
      </trkpt>
      <trkpt lat="51.045362753793597" lon="5.050499746575952">
        <ele>-0.97</ele>
        <time>2022-08-28T14:55:19Z</time>
      </trkpt>
      <trkpt lat="51.045397203415632" lon="5.050757909193635">
        <ele>-0.85</ele>
        <time>2022-08-28T14:55:30Z</time>
      </trkpt>
      <trkpt lat="51.045432826504111" lon="5.050960667431355">
        <ele>0.02</ele>
        <time>2022-08-28T14:55:42Z</time>
      </trkpt>
      <trkpt lat="51.045481692999601" lon="5.051128724589944">
        <ele>0.88</ele>
        <time>2022-08-28T14:55:51Z</time>
      </trkpt>
      <trkpt lat="51.045484794303775" lon="5.051152026280761">
        <ele>0.88</ele>
        <time>2022-08-28T14:55:52Z</time>
      </trkpt>
      <trkpt lat="51.045490242540836" lon="5.051177758723497">
        <ele>0.88</ele>
        <time>2022-08-28T14:55:53Z</time>
      </trkpt>
      <trkpt lat="51.045497367158532" lon="5.05120282061398">
        <ele>0.89</ele>
        <time>2022-08-28T14:55:54Z</time>
      </trkpt>
      <trkpt lat="51.045500803738832" lon="5.051229894161224">
        <ele>0.88</ele>
        <time>2022-08-28T14:55:55Z</time>
      </trkpt>
      <trkpt lat="51.045504156500101" lon="5.051253782585263">
        <ele>0.86</ele>
        <time>2022-08-28T14:55:56Z</time>
      </trkpt>
      <trkpt lat="51.04550507850945" lon="5.051278593018651">
        <ele>0.88</ele>
        <time>2022-08-28T14:55:57Z</time>
      </trkpt>
      <trkpt lat="51.04553634300828" lon="5.051515130326152">
        <ele>0.98</ele>
        <time>2022-08-28T14:56:07Z</time>
      </trkpt>
      <trkpt lat="51.045547742396593" lon="5.051609929651022">
        <ele>1.01</ele>
        <time>2022-08-28T14:56:11Z</time>
      </trkpt>
      <trkpt lat="51.045547155663371" lon="5.051630130037665">
        <ele>1.01</ele>
        <time>2022-08-28T14:56:12Z</time>
      </trkpt>
      <trkpt lat="51.045549670234323" lon="5.051655191928148">
        <ele>1.02</ele>
        <time>2022-08-28T14:56:13Z</time>
      </trkpt>
      <trkpt lat="51.045553022995591" lon="5.051683019846678">
        <ele>1.03</ele>
        <time>2022-08-28T14:56:14Z</time>
      </trkpt>
      <trkpt lat="51.045556124299765" lon="5.051709255203605">
        <ele>1.03</ele>
        <time>2022-08-28T14:56:15Z</time>
      </trkpt>
      <trkpt lat="51.045581270009279" lon="5.051984768360853">
        <ele>2</ele>
        <time>2022-08-28T14:56:28Z</time>
      </trkpt>
      <trkpt lat="51.045580934733152" lon="5.052124997600913">
        <ele>2</ele>
        <time>2022-08-28T14:56:33Z</time>
      </trkpt>
      <trkpt lat="51.045579761266708" lon="5.052150646224618">
        <ele>2.05</ele>
        <time>2022-08-28T14:56:34Z</time>
      </trkpt>
      <trkpt lat="51.045583868399262" lon="5.05217076279223">
        <ele>2.05</ele>
        <time>2022-08-28T14:56:35Z</time>
      </trkpt>
      <trkpt lat="51.045629465952516" lon="5.052540907636285">
        <ele>2.99</ele>
        <time>2022-08-28T14:57:10Z</time>
      </trkpt>
      <trkpt lat="51.045632902532816" lon="5.052578123286367">
        <ele>3.03</ele>
        <time>2022-08-28T14:57:33Z</time>
      </trkpt>
      <trkpt lat="51.045672968029976" lon="5.05274098366499">
        <ele>3.03</ele>
        <time>2022-08-28T14:57:50Z</time>
      </trkpt>
      <trkpt lat="51.045689145103097" lon="5.052818600088358">
        <ele>3.01</ele>
        <time>2022-08-28T14:57:57Z</time>
      </trkpt>
      <trkpt lat="51.046182503923774" lon="5.052769565954804">
        <ele>2.94</ele>
        <time>2022-08-28T14:58:34Z</time>
      </trkpt>
      <trkpt lat="51.046301107853651" lon="5.052739307284355">
        <ele>0.61</ele>
        <time>2022-08-28T14:58:39Z</time>
      </trkpt>
      <trkpt lat="51.046465476974845" lon="5.052735032513738">
        <ele>-0.27</ele>
        <time>2022-08-28T14:58:53Z</time>
      </trkpt>
      <trkpt lat="51.046689189970493" lon="5.052696140483022">
        <ele>-1.82</ele>
        <time>2022-08-28T14:59:13Z</time>
      </trkpt>
      <trkpt lat="51.046761944890022" lon="5.052696140483022">
        <ele>-1.79</ele>
        <time>2022-08-28T14:59:17Z</time>
      </trkpt>
      <trkpt lat="51.046810476109385" lon="5.052674598991871">
        <ele>-1.79</ele>
        <time>2022-08-28T14:59:18Z</time>
      </trkpt>
      <trkpt lat="51.046910136938095" lon="5.052661690860987">
        <ele>-1.79</ele>
        <time>2022-08-28T14:59:19Z</time>
      </trkpt>
      <trkpt lat="51.047098813578486" lon="5.052648698911071">
        <ele>-2.47</ele>
        <time>2022-08-28T14:59:44Z</time>
      </trkpt>
      <trkpt lat="51.047624861821532" lon="5.052620870992541">
        <ele>-3.74</ele>
        <time>2022-08-28T15:00:27Z</time>
      </trkpt>
      <trkpt lat="51.047934154048562" lon="5.05257535725832">
        <ele>-3.66</ele>
        <time>2022-08-28T15:00:43Z</time>
      </trkpt>
      <trkpt lat="51.048120064660907" lon="5.052635790780187">
        <ele>-3.57</ele>
        <time>2022-08-28T15:00:56Z</time>
      </trkpt>
      <trkpt lat="51.048516193404794" lon="5.052674598991871">
        <ele>-3.41</ele>
        <time>2022-08-28T15:01:16Z</time>
      </trkpt>
      <trkpt lat="51.048626750707626" lon="5.052730673924089">
        <ele>-3.35</ele>
        <time>2022-08-28T15:01:28Z</time>
      </trkpt>
      <trkpt lat="51.049026064574718" lon="5.052872831001878">
        <ele>-3.88</ele>
        <time>2022-08-28T15:02:03Z</time>
      </trkpt>
      <trkpt lat="51.049282969906926" lon="5.052941897884011">
        <ele>-3.76</ele>
        <time>2022-08-28T15:02:24Z</time>
      </trkpt>
      <trkpt lat="51.052323505282402" lon="5.054008075967431">
        <ele>-3.47</ele>
        <time>2022-08-28T15:03:15Z</time>
      </trkpt>
      <trkpt lat="51.052164500579238" lon="5.054504284635186">
        <ele>-3.36</ele>
        <time>2022-08-28T15:03:31Z</time>
      </trkpt>
    </trkseg>
  </trk>

</gpx>